<?xml version="1.0" encoding="UTF-8" standalone="no" ?>
<gpx xmlns="http://www.topografix.com/GPX/1/1" xmlns:xsi="http://www.w3.org/2001/XMLSchema-instance" xsi:schemaLocation="http://www.topografix.com/GPX/1/1 http://www.topografix.com/GPX/1/1/gpx.xsd" version="1.1" creator="VisuGPX - https://www.visugpx.com">
  <metadata>
    <name>St Genest - Les Assions - St Genest</name>
    <desc><![CDATA[Petite boucle de 16 kms.]]></desc>
  </metadata>
  <trk>
    <name><![CDATA[2012-06-02-10-58-23 on GPSies.com]]></name>
    <trkseg>
      <trkpt lat="44.44247" lon="4.18761">
        <ele>286.457</ele>
        <time>2012-06-02T10:58:41Z</time>
      </trkpt>
      <trkpt lat="44.44251" lon="4.18756">
        <ele>281.321</ele>
        <time>2012-06-02T10:58:44Z</time>
      </trkpt>
      <trkpt lat="44.44254" lon="4.18727">
        <ele>274.893</ele>
        <time>2012-06-02T10:58:51Z</time>
      </trkpt>
      <trkpt lat="44.44252" lon="4.18719">
        <ele>268.452</ele>
        <time>2012-06-02T10:58:57Z</time>
      </trkpt>
      <trkpt lat="44.44251" lon="4.18728">
        <ele>266.134</ele>
        <time>2012-06-02T10:59:03Z</time>
      </trkpt>
      <trkpt lat="44.44251" lon="4.18729">
        <ele>266.162</ele>
        <time>2012-06-02T10:59:53Z</time>
      </trkpt>
      <trkpt lat="44.44251" lon="4.18728">
        <ele>265.313</ele>
        <time>2012-06-02T10:59:59Z</time>
      </trkpt>
      <trkpt lat="44.4425" lon="4.18726">
        <ele>267.875</ele>
        <time>2012-06-02T11:00:03Z</time>
      </trkpt>
      <trkpt lat="44.44244" lon="4.18732">
        <ele>272.007</ele>
        <time>2012-06-02T11:00:13Z</time>
      </trkpt>
      <trkpt lat="44.44244" lon="4.18731">
        <ele>269.896</ele>
        <time>2012-06-02T11:00:14Z</time>
      </trkpt>
      <trkpt lat="44.44246" lon="4.18729">
        <ele>261.982</ele>
        <time>2012-06-02T11:00:18Z</time>
      </trkpt>
      <trkpt lat="44.44253" lon="4.1873">
        <ele>261.644</ele>
        <time>2012-06-02T11:00:22Z</time>
      </trkpt>
      <trkpt lat="44.44258" lon="4.18733">
        <ele>256.933</ele>
        <time>2012-06-02T11:00:26Z</time>
      </trkpt>
      <trkpt lat="44.44263" lon="4.1873">
        <ele>257.284</ele>
        <time>2012-06-02T11:00:30Z</time>
      </trkpt>
      <trkpt lat="44.44272" lon="4.18725">
        <ele>257.947</ele>
        <time>2012-06-02T11:00:35Z</time>
      </trkpt>
      <trkpt lat="44.44289" lon="4.18721">
        <ele>256.236</ele>
        <time>2012-06-02T11:00:42Z</time>
      </trkpt>
      <trkpt lat="44.44308" lon="4.18715">
        <ele>257.137</ele>
        <time>2012-06-02T11:00:50Z</time>
      </trkpt>
      <trkpt lat="44.44325" lon="4.18709">
        <ele>257.367</ele>
        <time>2012-06-02T11:00:57Z</time>
      </trkpt>
      <trkpt lat="44.44348" lon="4.18702">
        <ele>256.887</ele>
        <time>2012-06-02T11:01:05Z</time>
      </trkpt>
      <trkpt lat="44.44381" lon="4.18694">
        <ele>259.258</ele>
        <time>2012-06-02T11:01:15Z</time>
      </trkpt>
      <trkpt lat="44.44415" lon="4.1869">
        <ele>261.249</ele>
        <time>2012-06-02T11:01:25Z</time>
      </trkpt>
      <trkpt lat="44.44446" lon="4.18689">
        <ele>261.969</ele>
        <time>2012-06-02T11:01:34Z</time>
      </trkpt>
      <trkpt lat="44.44468" lon="4.18687">
        <ele>264.45</ele>
        <time>2012-06-02T11:01:41Z</time>
      </trkpt>
      <trkpt lat="44.44483" lon="4.18686">
        <ele>265.319</ele>
        <time>2012-06-02T11:01:47Z</time>
      </trkpt>
      <trkpt lat="44.445" lon="4.18685">
        <ele>267.41</ele>
        <time>2012-06-02T11:01:54Z</time>
      </trkpt>
      <trkpt lat="44.44517" lon="4.18684">
        <ele>268.601</ele>
        <time>2012-06-02T11:02:01Z</time>
      </trkpt>
      <trkpt lat="44.4454" lon="4.18682">
        <ele>269.881</ele>
        <time>2012-06-02T11:02:11Z</time>
      </trkpt>
      <trkpt lat="44.44558" lon="4.1868">
        <ele>273.342</ele>
        <time>2012-06-02T11:02:19Z</time>
      </trkpt>
      <trkpt lat="44.44574" lon="4.18674">
        <ele>274.251</ele>
        <time>2012-06-02T11:02:26Z</time>
      </trkpt>
      <trkpt lat="44.44579" lon="4.18662">
        <ele>272.749</ele>
        <time>2012-06-02T11:02:31Z</time>
      </trkpt>
      <trkpt lat="44.44583" lon="4.18644">
        <ele>273.219</ele>
        <time>2012-06-02T11:02:38Z</time>
      </trkpt>
      <trkpt lat="44.44591" lon="4.18631">
        <ele>275.259</ele>
        <time>2012-06-02T11:02:44Z</time>
      </trkpt>
      <trkpt lat="44.44603" lon="4.18624">
        <ele>275.741</ele>
        <time>2012-06-02T11:02:51Z</time>
      </trkpt>
      <trkpt lat="44.44619" lon="4.18611">
        <ele>279.451</ele>
        <time>2012-06-02T11:03:01Z</time>
      </trkpt>
      <trkpt lat="44.44631" lon="4.18593">
        <ele>283.24</ele>
        <time>2012-06-02T11:03:10Z</time>
      </trkpt>
      <trkpt lat="44.44641" lon="4.18576">
        <ele>283.609</ele>
        <time>2012-06-02T11:03:18Z</time>
      </trkpt>
      <trkpt lat="44.4465" lon="4.18562">
        <ele>284.71</ele>
        <time>2012-06-02T11:03:25Z</time>
      </trkpt>
      <trkpt lat="44.44658" lon="4.18542">
        <ele>284.917</ele>
        <time>2012-06-02T11:03:32Z</time>
      </trkpt>
      <trkpt lat="44.44666" lon="4.18514">
        <ele>282.888</ele>
        <time>2012-06-02T11:03:40Z</time>
      </trkpt>
      <trkpt lat="44.44671" lon="4.18487">
        <ele>280.095</ele>
        <time>2012-06-02T11:03:47Z</time>
      </trkpt>
      <trkpt lat="44.44664" lon="4.18469">
        <ele>278.206</ele>
        <time>2012-06-02T11:03:52Z</time>
      </trkpt>
      <trkpt lat="44.44647" lon="4.18445">
        <ele>274.695</ele>
        <time>2012-06-02T11:04:01Z</time>
      </trkpt>
      <trkpt lat="44.44629" lon="4.1843">
        <ele>273.456</ele>
        <time>2012-06-02T11:04:08Z</time>
      </trkpt>
      <trkpt lat="44.44616" lon="4.18414">
        <ele>273.528</ele>
        <time>2012-06-02T11:04:13Z</time>
      </trkpt>
      <trkpt lat="44.44613" lon="4.18388">
        <ele>275.589</ele>
        <time>2012-06-02T11:04:19Z</time>
      </trkpt>
      <trkpt lat="44.44614" lon="4.18363">
        <ele>278.831</ele>
        <time>2012-06-02T11:04:24Z</time>
      </trkpt>
      <trkpt lat="44.44624" lon="4.18333">
        <ele>280.909</ele>
        <time>2012-06-02T11:04:31Z</time>
      </trkpt>
      <trkpt lat="44.44635" lon="4.18312">
        <ele>281.589</ele>
        <time>2012-06-02T11:04:37Z</time>
      </trkpt>
      <trkpt lat="44.44651" lon="4.18293">
        <ele>280.937</ele>
        <time>2012-06-02T11:04:43Z</time>
      </trkpt>
      <trkpt lat="44.44652" lon="4.18273">
        <ele>284.679</ele>
        <time>2012-06-02T11:04:47Z</time>
      </trkpt>
      <trkpt lat="44.44654" lon="4.18234">
        <ele>284.791</ele>
        <time>2012-06-02T11:04:56Z</time>
      </trkpt>
      <trkpt lat="44.44655" lon="4.1821">
        <ele>285.99</ele>
        <time>2012-06-02T11:05:03Z</time>
      </trkpt>
      <trkpt lat="44.44659" lon="4.18187">
        <ele>284.955</ele>
        <time>2012-06-02T11:05:09Z</time>
      </trkpt>
      <trkpt lat="44.44669" lon="4.18149">
        <ele>285.254</ele>
        <time>2012-06-02T11:05:15Z</time>
      </trkpt>
      <trkpt lat="44.4468" lon="4.18105">
        <ele>285.799</ele>
        <time>2012-06-02T11:05:21Z</time>
      </trkpt>
      <trkpt lat="44.44686" lon="4.18077">
        <ele>285.017</ele>
        <time>2012-06-02T11:05:26Z</time>
      </trkpt>
      <trkpt lat="44.447" lon="4.18022">
        <ele>284.486</ele>
        <time>2012-06-02T11:05:34Z</time>
      </trkpt>
      <trkpt lat="44.44704" lon="4.18008">
        <ele>283.905</ele>
        <time>2012-06-02T11:05:36Z</time>
      </trkpt>
      <trkpt lat="44.44709" lon="4.17986">
        <ele>283.916</ele>
        <time>2012-06-02T11:05:39Z</time>
      </trkpt>
      <trkpt lat="44.44716" lon="4.17961">
        <ele>284.318</ele>
        <time>2012-06-02T11:05:43Z</time>
      </trkpt>
      <trkpt lat="44.4472" lon="4.1792">
        <ele>283.626</ele>
        <time>2012-06-02T11:05:49Z</time>
      </trkpt>
      <trkpt lat="44.44731" lon="4.17891">
        <ele>281.833</ele>
        <time>2012-06-02T11:05:53Z</time>
      </trkpt>
      <trkpt lat="44.44756" lon="4.17837">
        <ele>278.781</ele>
        <time>2012-06-02T11:05:59Z</time>
      </trkpt>
      <trkpt lat="44.44759" lon="4.17827">
        <ele>277.93</ele>
        <time>2012-06-02T11:06:00Z</time>
      </trkpt>
      <trkpt lat="44.44766" lon="4.17809">
        <ele>276.449</ele>
        <time>2012-06-02T11:06:02Z</time>
      </trkpt>
      <trkpt lat="44.44779" lon="4.17782">
        <ele>272.827</ele>
        <time>2012-06-02T11:06:06Z</time>
      </trkpt>
      <trkpt lat="44.44781" lon="4.17774">
        <ele>273.359</ele>
        <time>2012-06-02T11:06:09Z</time>
      </trkpt>
      <trkpt lat="44.44781" lon="4.17774">
        <ele>272.611</ele>
        <time>2012-06-02T11:06:10Z</time>
      </trkpt>
      <trkpt lat="44.44786" lon="4.17768">
        <ele>270.281</ele>
        <time>2012-06-02T11:06:58Z</time>
      </trkpt>
      <trkpt lat="44.44791" lon="4.17758">
        <ele>268.55</ele>
        <time>2012-06-02T11:07:00Z</time>
      </trkpt>
      <trkpt lat="44.448" lon="4.17744">
        <ele>266.681</ele>
        <time>2012-06-02T11:07:03Z</time>
      </trkpt>
      <trkpt lat="44.44823" lon="4.1772">
        <ele>264.624</ele>
        <time>2012-06-02T11:07:10Z</time>
      </trkpt>
      <trkpt lat="44.44841" lon="4.17712">
        <ele>264.745</ele>
        <time>2012-06-02T11:07:16Z</time>
      </trkpt>
      <trkpt lat="44.44865" lon="4.17705">
        <ele>263.384</ele>
        <time>2012-06-02T11:07:21Z</time>
      </trkpt>
      <trkpt lat="44.44889" lon="4.17695">
        <ele>262.964</ele>
        <time>2012-06-02T11:07:25Z</time>
      </trkpt>
      <trkpt lat="44.44915" lon="4.17681">
        <ele>263.156</ele>
        <time>2012-06-02T11:07:30Z</time>
      </trkpt>
      <trkpt lat="44.4493" lon="4.17665">
        <ele>263.257</ele>
        <time>2012-06-02T11:07:35Z</time>
      </trkpt>
      <trkpt lat="44.44947" lon="4.17658">
        <ele>263.249</ele>
        <time>2012-06-02T11:07:40Z</time>
      </trkpt>
      <trkpt lat="44.44967" lon="4.1765">
        <ele>264.111</ele>
        <time>2012-06-02T11:07:46Z</time>
      </trkpt>
      <trkpt lat="44.4498" lon="4.17643">
        <ele>264.049</ele>
        <time>2012-06-02T11:07:51Z</time>
      </trkpt>
      <trkpt lat="44.4499" lon="4.17634">
        <ele>264.79</ele>
        <time>2012-06-02T11:07:56Z</time>
      </trkpt>
      <trkpt lat="44.45003" lon="4.17623">
        <ele>264.718</ele>
        <time>2012-06-02T11:08:03Z</time>
      </trkpt>
      <trkpt lat="44.45013" lon="4.17609">
        <ele>263.726</ele>
        <time>2012-06-02T11:08:09Z</time>
      </trkpt>
      <trkpt lat="44.45018" lon="4.1759">
        <ele>263.154</ele>
        <time>2012-06-02T11:08:15Z</time>
      </trkpt>
      <trkpt lat="44.45016" lon="4.17585">
        <ele>263.345</ele>
        <time>2012-06-02T11:08:17Z</time>
      </trkpt>
      <trkpt lat="44.45005" lon="4.17578">
        <ele>277.373</ele>
        <time>2012-06-02T11:08:21Z</time>
      </trkpt>
      <trkpt lat="44.44987" lon="4.17581">
        <ele>285.434</ele>
        <time>2012-06-02T11:08:30Z</time>
      </trkpt>
      <trkpt lat="44.44975" lon="4.1758">
        <ele>289.752</ele>
        <time>2012-06-02T11:08:37Z</time>
      </trkpt>
      <trkpt lat="44.4497" lon="4.17581">
        <ele>295.875</ele>
        <time>2012-06-02T11:08:42Z</time>
      </trkpt>
      <trkpt lat="44.4496" lon="4.1758">
        <ele>296.302</ele>
        <time>2012-06-02T11:08:48Z</time>
      </trkpt>
      <trkpt lat="44.44946" lon="4.17576">
        <ele>295.808</ele>
        <time>2012-06-02T11:08:55Z</time>
      </trkpt>
      <trkpt lat="44.44944" lon="4.17576">
        <ele>295.087</ele>
        <time>2012-06-02T11:08:56Z</time>
      </trkpt>
      <trkpt lat="44.44944" lon="4.17568">
        <ele>295.387</ele>
        <time>2012-06-02T11:09:01Z</time>
      </trkpt>
      <trkpt lat="44.44946" lon="4.17567">
        <ele>295.288</ele>
        <time>2012-06-02T11:09:03Z</time>
      </trkpt>
      <trkpt lat="44.44948" lon="4.17567">
        <ele>295.847</ele>
        <time>2012-06-02T11:09:05Z</time>
      </trkpt>
      <trkpt lat="44.44955" lon="4.17557">
        <ele>298.309</ele>
        <time>2012-06-02T11:09:12Z</time>
      </trkpt>
      <trkpt lat="44.44952" lon="4.17543">
        <ele>299.758</ele>
        <time>2012-06-02T11:09:19Z</time>
      </trkpt>
      <trkpt lat="44.44948" lon="4.17533">
        <ele>295.424</ele>
        <time>2012-06-02T11:09:25Z</time>
      </trkpt>
      <trkpt lat="44.44949" lon="4.1752">
        <ele>290.502</ele>
        <time>2012-06-02T11:09:30Z</time>
      </trkpt>
      <trkpt lat="44.44956" lon="4.17502">
        <ele>287.756</ele>
        <time>2012-06-02T11:09:38Z</time>
      </trkpt>
      <trkpt lat="44.4496" lon="4.17488">
        <ele>288.656</ele>
        <time>2012-06-02T11:09:45Z</time>
      </trkpt>
      <trkpt lat="44.44962" lon="4.17485">
        <ele>292.479</ele>
        <time>2012-06-02T11:09:47Z</time>
      </trkpt>
      <trkpt lat="44.44967" lon="4.1749">
        <ele>296.689</ele>
        <time>2012-06-02T11:09:53Z</time>
      </trkpt>
      <trkpt lat="44.44967" lon="4.17492">
        <ele>296.879</ele>
        <time>2012-06-02T11:09:54Z</time>
      </trkpt>
      <trkpt lat="44.44973" lon="4.17511">
        <ele>297.348</ele>
        <time>2012-06-02T11:10:03Z</time>
      </trkpt>
      <trkpt lat="44.44985" lon="4.17516">
        <ele>299</ele>
        <time>2012-06-02T11:10:09Z</time>
      </trkpt>
      <trkpt lat="44.4499" lon="4.17516">
        <ele>299.529</ele>
        <time>2012-06-02T11:10:12Z</time>
      </trkpt>
      <trkpt lat="44.44997" lon="4.17509">
        <ele>300.788</ele>
        <time>2012-06-02T11:10:18Z</time>
      </trkpt>
      <trkpt lat="44.44998" lon="4.17508">
        <ele>301.089</ele>
        <time>2012-06-02T11:10:19Z</time>
      </trkpt>
      <trkpt lat="44.45001" lon="4.17495">
        <ele>302.008</ele>
        <time>2012-06-02T11:10:25Z</time>
      </trkpt>
      <trkpt lat="44.45001" lon="4.17493">
        <ele>301.967</ele>
        <time>2012-06-02T11:10:26Z</time>
      </trkpt>
      <trkpt lat="44.45004" lon="4.17479">
        <ele>300.336</ele>
        <time>2012-06-02T11:10:32Z</time>
      </trkpt>
      <trkpt lat="44.45011" lon="4.1747">
        <ele>303.517</ele>
        <time>2012-06-02T11:10:37Z</time>
      </trkpt>
      <trkpt lat="44.45022" lon="4.17462">
        <ele>305.618</ele>
        <time>2012-06-02T11:10:44Z</time>
      </trkpt>
      <trkpt lat="44.4503" lon="4.17455">
        <ele>307.628</ele>
        <time>2012-06-02T11:10:50Z</time>
      </trkpt>
      <trkpt lat="44.45041" lon="4.17453">
        <ele>309.296</ele>
        <time>2012-06-02T11:10:58Z</time>
      </trkpt>
      <trkpt lat="44.45054" lon="4.17449">
        <ele>311.288</ele>
        <time>2012-06-02T11:11:05Z</time>
      </trkpt>
      <trkpt lat="44.45073" lon="4.17446">
        <ele>313.718</ele>
        <time>2012-06-02T11:11:13Z</time>
      </trkpt>
      <trkpt lat="44.45085" lon="4.1744">
        <ele>316.44</ele>
        <time>2012-06-02T11:11:19Z</time>
      </trkpt>
      <trkpt lat="44.45088" lon="4.17427">
        <ele>314.807</ele>
        <time>2012-06-02T11:11:25Z</time>
      </trkpt>
      <trkpt lat="44.45094" lon="4.17413">
        <ele>312.936</ele>
        <time>2012-06-02T11:11:32Z</time>
      </trkpt>
      <trkpt lat="44.45101" lon="4.17396">
        <ele>317.429</ele>
        <time>2012-06-02T11:11:39Z</time>
      </trkpt>
      <trkpt lat="44.45109" lon="4.17371">
        <ele>316.608</ele>
        <time>2012-06-02T11:11:49Z</time>
      </trkpt>
      <trkpt lat="44.45111" lon="4.17368">
        <ele>316.748</ele>
        <time>2012-06-02T11:11:50Z</time>
      </trkpt>
      <trkpt lat="44.45122" lon="4.17353">
        <ele>317.307</ele>
        <time>2012-06-02T11:11:57Z</time>
      </trkpt>
      <trkpt lat="44.45136" lon="4.17325">
        <ele>318.538</ele>
        <time>2012-06-02T11:12:05Z</time>
      </trkpt>
      <trkpt lat="44.45152" lon="4.17299">
        <ele>320.739</ele>
        <time>2012-06-02T11:12:13Z</time>
      </trkpt>
      <trkpt lat="44.45172" lon="4.17276">
        <ele>321.678</ele>
        <time>2012-06-02T11:12:20Z</time>
      </trkpt>
      <trkpt lat="44.4518" lon="4.17248">
        <ele>320.087</ele>
        <time>2012-06-02T11:12:26Z</time>
      </trkpt>
      <trkpt lat="44.45192" lon="4.17225">
        <ele>319.517</ele>
        <time>2012-06-02T11:12:32Z</time>
      </trkpt>
      <trkpt lat="44.45206" lon="4.17195">
        <ele>318.849</ele>
        <time>2012-06-02T11:12:39Z</time>
      </trkpt>
      <trkpt lat="44.45211" lon="4.17162">
        <ele>317.095</ele>
        <time>2012-06-02T11:12:46Z</time>
      </trkpt>
      <trkpt lat="44.45202" lon="4.17146">
        <ele>315.945</ele>
        <time>2012-06-02T11:12:50Z</time>
      </trkpt>
      <trkpt lat="44.45182" lon="4.17132">
        <ele>318.769</ele>
        <time>2012-06-02T11:12:56Z</time>
      </trkpt>
      <trkpt lat="44.45179" lon="4.17111">
        <ele>318.127</ele>
        <time>2012-06-02T11:13:01Z</time>
      </trkpt>
      <trkpt lat="44.4518" lon="4.17106">
        <ele>317.927</ele>
        <time>2012-06-02T11:13:02Z</time>
      </trkpt>
      <trkpt lat="44.45188" lon="4.17064">
        <ele>316.235</ele>
        <time>2012-06-02T11:13:10Z</time>
      </trkpt>
      <trkpt lat="44.45187" lon="4.17058">
        <ele>315.995</ele>
        <time>2012-06-02T11:13:11Z</time>
      </trkpt>
      <trkpt lat="44.45175" lon="4.17046">
        <ele>316.716</ele>
        <time>2012-06-02T11:13:15Z</time>
      </trkpt>
      <trkpt lat="44.45167" lon="4.17043">
        <ele>316.816</ele>
        <time>2012-06-02T11:13:17Z</time>
      </trkpt>
      <trkpt lat="44.45152" lon="4.17033">
        <ele>316.877</ele>
        <time>2012-06-02T11:13:21Z</time>
      </trkpt>
      <trkpt lat="44.45126" lon="4.17016">
        <ele>317.067</ele>
        <time>2012-06-02T11:13:29Z</time>
      </trkpt>
      <trkpt lat="44.45099" lon="4.17009">
        <ele>316.475</ele>
        <time>2012-06-02T11:13:36Z</time>
      </trkpt>
      <trkpt lat="44.45088" lon="4.16986">
        <ele>314.953</ele>
        <time>2012-06-02T11:13:41Z</time>
      </trkpt>
      <trkpt lat="44.45089" lon="4.1696">
        <ele>313.473</ele>
        <time>2012-06-02T11:13:46Z</time>
      </trkpt>
      <trkpt lat="44.45104" lon="4.16915">
        <ele>314.427</ele>
        <time>2012-06-02T11:13:55Z</time>
      </trkpt>
      <trkpt lat="44.45118" lon="4.16867">
        <ele>315.355</ele>
        <time>2012-06-02T11:14:04Z</time>
      </trkpt>
      <trkpt lat="44.45133" lon="4.16824">
        <ele>315.606</ele>
        <time>2012-06-02T11:14:12Z</time>
      </trkpt>
      <trkpt lat="44.45151" lon="4.16773">
        <ele>316.427</ele>
        <time>2012-06-02T11:14:21Z</time>
      </trkpt>
      <trkpt lat="44.45158" lon="4.1676">
        <ele>317.058</ele>
        <time>2012-06-02T11:14:24Z</time>
      </trkpt>
      <trkpt lat="44.45155" lon="4.16763">
        <ele>317.046</ele>
        <time>2012-06-02T11:14:29Z</time>
      </trkpt>
      <trkpt lat="44.45152" lon="4.16762">
        <ele>316.524</ele>
        <time>2012-06-02T11:14:32Z</time>
      </trkpt>
      <trkpt lat="44.45153" lon="4.1675">
        <ele>316.365</ele>
        <time>2012-06-02T11:14:35Z</time>
      </trkpt>
      <trkpt lat="44.45157" lon="4.16715">
        <ele>316.777</ele>
        <time>2012-06-02T11:14:42Z</time>
      </trkpt>
      <trkpt lat="44.45158" lon="4.16667">
        <ele>317.778</ele>
        <time>2012-06-02T11:14:51Z</time>
      </trkpt>
      <trkpt lat="44.45162" lon="4.16639">
        <ele>317.867</ele>
        <time>2012-06-02T11:14:58Z</time>
      </trkpt>
      <trkpt lat="44.45163" lon="4.1661">
        <ele>318.077</ele>
        <time>2012-06-02T11:15:05Z</time>
      </trkpt>
      <trkpt lat="44.45161" lon="4.16588">
        <ele>317.525</ele>
        <time>2012-06-02T11:15:11Z</time>
      </trkpt>
      <trkpt lat="44.45158" lon="4.16567">
        <ele>316.635</ele>
        <time>2012-06-02T11:15:17Z</time>
      </trkpt>
      <trkpt lat="44.45154" lon="4.16537">
        <ele>316.086</ele>
        <time>2012-06-02T11:15:26Z</time>
      </trkpt>
      <trkpt lat="44.45154" lon="4.16515">
        <ele>316.447</ele>
        <time>2012-06-02T11:15:33Z</time>
      </trkpt>
      <trkpt lat="44.45153" lon="4.16504">
        <ele>316.576</ele>
        <time>2012-06-02T11:15:37Z</time>
      </trkpt>
      <trkpt lat="44.45156" lon="4.16487">
        <ele>319.977</ele>
        <time>2012-06-02T11:15:44Z</time>
      </trkpt>
      <trkpt lat="44.45165" lon="4.1647">
        <ele>326.179</ele>
        <time>2012-06-02T11:15:53Z</time>
      </trkpt>
      <trkpt lat="44.45172" lon="4.16455">
        <ele>328.888</ele>
        <time>2012-06-02T11:16:01Z</time>
      </trkpt>
      <trkpt lat="44.45176" lon="4.16439">
        <ele>329.867</ele>
        <time>2012-06-02T11:16:08Z</time>
      </trkpt>
      <trkpt lat="44.45175" lon="4.16423">
        <ele>330.036</ele>
        <time>2012-06-02T11:16:15Z</time>
      </trkpt>
      <trkpt lat="44.45174" lon="4.16406">
        <ele>329.826</ele>
        <time>2012-06-02T11:16:23Z</time>
      </trkpt>
      <trkpt lat="44.45174" lon="4.1639">
        <ele>331.247</ele>
        <time>2012-06-02T11:16:31Z</time>
      </trkpt>
      <trkpt lat="44.45171" lon="4.16375">
        <ele>330.516</ele>
        <time>2012-06-02T11:16:39Z</time>
      </trkpt>
      <trkpt lat="44.45168" lon="4.1636">
        <ele>329.776</ele>
        <time>2012-06-02T11:16:47Z</time>
      </trkpt>
      <trkpt lat="44.45169" lon="4.16342">
        <ele>332.247</ele>
        <time>2012-06-02T11:16:55Z</time>
      </trkpt>
      <trkpt lat="44.45158" lon="4.16334">
        <ele>334.866</ele>
        <time>2012-06-02T11:17:02Z</time>
      </trkpt>
      <trkpt lat="44.45145" lon="4.16324">
        <ele>335.966</ele>
        <time>2012-06-02T11:17:10Z</time>
      </trkpt>
      <trkpt lat="44.45132" lon="4.16314">
        <ele>336.116</ele>
        <time>2012-06-02T11:17:18Z</time>
      </trkpt>
      <trkpt lat="44.45117" lon="4.16304">
        <ele>338.146</ele>
        <time>2012-06-02T11:17:27Z</time>
      </trkpt>
      <trkpt lat="44.45103" lon="4.16288">
        <ele>339.204</ele>
        <time>2012-06-02T11:17:37Z</time>
      </trkpt>
      <trkpt lat="44.45099" lon="4.16272">
        <ele>337.982</ele>
        <time>2012-06-02T11:17:41Z</time>
      </trkpt>
      <trkpt lat="44.45096" lon="4.16253">
        <ele>336.462</ele>
        <time>2012-06-02T11:17:47Z</time>
      </trkpt>
      <trkpt lat="44.45088" lon="4.16221">
        <ele>334.463</ele>
        <time>2012-06-02T11:17:55Z</time>
      </trkpt>
      <trkpt lat="44.45083" lon="4.16181">
        <ele>332.202</ele>
        <time>2012-06-02T11:18:04Z</time>
      </trkpt>
      <trkpt lat="44.45081" lon="4.16149">
        <ele>332.964</ele>
        <time>2012-06-02T11:18:11Z</time>
      </trkpt>
      <trkpt lat="44.45079" lon="4.16122">
        <ele>335.035</ele>
        <time>2012-06-02T11:18:18Z</time>
      </trkpt>
      <trkpt lat="44.45078" lon="4.16102">
        <ele>336.265</ele>
        <time>2012-06-02T11:18:25Z</time>
      </trkpt>
      <trkpt lat="44.45077" lon="4.16101">
        <ele>338.443</ele>
        <time>2012-06-02T11:18:27Z</time>
      </trkpt>
      <trkpt lat="44.45074" lon="4.16094">
        <ele>347.133</ele>
        <time>2012-06-02T11:20:04Z</time>
      </trkpt>
      <trkpt lat="44.45074" lon="4.16094">
        <ele>346.887</ele>
        <time>2012-06-02T11:20:05Z</time>
      </trkpt>
      <trkpt lat="44.45074" lon="4.16083">
        <ele>337.843</ele>
        <time>2012-06-02T11:20:19Z</time>
      </trkpt>
      <trkpt lat="44.45072" lon="4.16077">
        <ele>335.558</ele>
        <time>2012-06-02T11:20:26Z</time>
      </trkpt>
      <trkpt lat="44.45068" lon="4.16074">
        <ele>345.365</ele>
        <time>2012-06-02T11:22:26Z</time>
      </trkpt>
      <trkpt lat="44.45072" lon="4.16049">
        <ele>342.893</ele>
        <time>2012-06-02T11:22:34Z</time>
      </trkpt>
      <trkpt lat="44.45076" lon="4.16032">
        <ele>338.831</ele>
        <time>2012-06-02T11:22:41Z</time>
      </trkpt>
      <trkpt lat="44.45078" lon="4.16018">
        <ele>341.024</ele>
        <time>2012-06-02T11:22:47Z</time>
      </trkpt>
      <trkpt lat="44.45083" lon="4.15998">
        <ele>343.924</ele>
        <time>2012-06-02T11:22:56Z</time>
      </trkpt>
      <trkpt lat="44.45085" lon="4.15981">
        <ele>351.32</ele>
        <time>2012-06-02T11:23:03Z</time>
      </trkpt>
      <trkpt lat="44.45084" lon="4.15976">
        <ele>353.35</ele>
        <time>2012-06-02T11:23:05Z</time>
      </trkpt>
      <trkpt lat="44.45079" lon="4.15964">
        <ele>353.496</ele>
        <time>2012-06-02T11:23:11Z</time>
      </trkpt>
      <trkpt lat="44.45079" lon="4.15962">
        <ele>353.685</ele>
        <time>2012-06-02T11:23:12Z</time>
      </trkpt>
      <trkpt lat="44.45086" lon="4.15942">
        <ele>352.641</ele>
        <time>2012-06-02T11:23:21Z</time>
      </trkpt>
      <trkpt lat="44.4509" lon="4.15927">
        <ele>352.642</ele>
        <time>2012-06-02T11:23:28Z</time>
      </trkpt>
      <trkpt lat="44.45082" lon="4.15919">
        <ele>352.463</ele>
        <time>2012-06-02T11:23:33Z</time>
      </trkpt>
      <trkpt lat="44.45059" lon="4.1591">
        <ele>351.63</ele>
        <time>2012-06-02T11:23:44Z</time>
      </trkpt>
      <trkpt lat="44.45054" lon="4.15908">
        <ele>350.6</ele>
        <time>2012-06-02T11:23:48Z</time>
      </trkpt>
      <trkpt lat="44.45051" lon="4.15918">
        <ele>350.231</ele>
        <time>2012-06-02T11:23:54Z</time>
      </trkpt>
      <trkpt lat="44.45049" lon="4.15921">
        <ele>351.931</ele>
        <time>2012-06-02T11:23:59Z</time>
      </trkpt>
      <trkpt lat="44.45053" lon="4.15906">
        <ele>352.813</ele>
        <time>2012-06-02T11:24:07Z</time>
      </trkpt>
      <trkpt lat="44.45052" lon="4.15904">
        <ele>352.872</ele>
        <time>2012-06-02T11:24:08Z</time>
      </trkpt>
      <trkpt lat="44.45042" lon="4.15886">
        <ele>355.876</ele>
        <time>2012-06-02T11:24:15Z</time>
      </trkpt>
      <trkpt lat="44.45014" lon="4.15845">
        <ele>361.704</ele>
        <time>2012-06-02T11:24:30Z</time>
      </trkpt>
      <trkpt lat="44.45006" lon="4.15842">
        <ele>357.101</ele>
        <time>2012-06-02T11:24:34Z</time>
      </trkpt>
      <trkpt lat="44.45005" lon="4.15839">
        <ele>356.762</ele>
        <time>2012-06-02T11:24:35Z</time>
      </trkpt>
      <trkpt lat="44.45003" lon="4.15833">
        <ele>357.805</ele>
        <time>2012-06-02T11:24:37Z</time>
      </trkpt>
      <trkpt lat="44.44993" lon="4.15828">
        <ele>357.475</ele>
        <time>2012-06-02T11:24:42Z</time>
      </trkpt>
      <trkpt lat="44.44973" lon="4.15818">
        <ele>357.444</ele>
        <time>2012-06-02T11:24:49Z</time>
      </trkpt>
      <trkpt lat="44.44962" lon="4.15799">
        <ele>356.703</ele>
        <time>2012-06-02T11:24:55Z</time>
      </trkpt>
      <trkpt lat="44.44961" lon="4.15798">
        <ele>355.922</ele>
        <time>2012-06-02T11:24:58Z</time>
      </trkpt>
      <trkpt lat="44.44959" lon="4.15791">
        <ele>352.852</ele>
        <time>2012-06-02T11:25:10Z</time>
      </trkpt>
      <trkpt lat="44.44957" lon="4.15787">
        <ele>352.253</ele>
        <time>2012-06-02T11:25:16Z</time>
      </trkpt>
      <trkpt lat="44.44951" lon="4.15774">
        <ele>350.551</ele>
        <time>2012-06-02T11:25:21Z</time>
      </trkpt>
      <trkpt lat="44.4495" lon="4.15755">
        <ele>350.734</ele>
        <time>2012-06-02T11:25:26Z</time>
      </trkpt>
      <trkpt lat="44.44953" lon="4.15732">
        <ele>350.795</ele>
        <time>2012-06-02T11:25:34Z</time>
      </trkpt>
      <trkpt lat="44.44958" lon="4.1571">
        <ele>351.195</ele>
        <time>2012-06-02T11:25:42Z</time>
      </trkpt>
      <trkpt lat="44.44964" lon="4.15686">
        <ele>352.205</ele>
        <time>2012-06-02T11:25:51Z</time>
      </trkpt>
      <trkpt lat="44.44973" lon="4.15672">
        <ele>353.424</ele>
        <time>2012-06-02T11:25:58Z</time>
      </trkpt>
      <trkpt lat="44.44988" lon="4.15661">
        <ele>355.013</ele>
        <time>2012-06-02T11:26:06Z</time>
      </trkpt>
      <trkpt lat="44.45004" lon="4.15649">
        <ele>355.353</ele>
        <time>2012-06-02T11:26:13Z</time>
      </trkpt>
      <trkpt lat="44.45024" lon="4.15638">
        <ele>355.902</ele>
        <time>2012-06-02T11:26:20Z</time>
      </trkpt>
      <trkpt lat="44.45039" lon="4.15633">
        <ele>356.401</ele>
        <time>2012-06-02T11:26:24Z</time>
      </trkpt>
      <trkpt lat="44.45054" lon="4.15629">
        <ele>356.37</ele>
        <time>2012-06-02T11:26:28Z</time>
      </trkpt>
      <trkpt lat="44.45075" lon="4.15623">
        <ele>356.111</ele>
        <time>2012-06-02T11:26:34Z</time>
      </trkpt>
      <trkpt lat="44.45076" lon="4.15611">
        <ele>355.532</ele>
        <time>2012-06-02T11:26:38Z</time>
      </trkpt>
      <trkpt lat="44.45071" lon="4.15566">
        <ele>355.624</ele>
        <time>2012-06-02T11:26:48Z</time>
      </trkpt>
      <trkpt lat="44.45069" lon="4.15532">
        <ele>357.355</ele>
        <time>2012-06-02T11:26:56Z</time>
      </trkpt>
      <trkpt lat="44.4507" lon="4.15508">
        <ele>361.506</ele>
        <time>2012-06-02T11:27:03Z</time>
      </trkpt>
      <trkpt lat="44.45073" lon="4.15488">
        <ele>360.462</ele>
        <time>2012-06-02T11:27:11Z</time>
      </trkpt>
      <trkpt lat="44.45076" lon="4.15467">
        <ele>361.515</ele>
        <time>2012-06-02T11:27:18Z</time>
      </trkpt>
      <trkpt lat="44.45073" lon="4.15445">
        <ele>362.564</ele>
        <time>2012-06-02T11:27:26Z</time>
      </trkpt>
      <trkpt lat="44.4507" lon="4.15422">
        <ele>365.475</ele>
        <time>2012-06-02T11:27:34Z</time>
      </trkpt>
      <trkpt lat="44.45067" lon="4.15405">
        <ele>367.464</ele>
        <time>2012-06-02T11:27:41Z</time>
      </trkpt>
      <trkpt lat="44.45064" lon="4.15393">
        <ele>368.264</ele>
        <time>2012-06-02T11:27:46Z</time>
      </trkpt>
      <trkpt lat="44.4506" lon="4.15377">
        <ele>369.013</ele>
        <time>2012-06-02T11:27:53Z</time>
      </trkpt>
      <trkpt lat="44.45057" lon="4.15368">
        <ele>370.003</ele>
        <time>2012-06-02T11:27:59Z</time>
      </trkpt>
      <trkpt lat="44.45054" lon="4.15364">
        <ele>369.554</ele>
        <time>2012-06-02T11:28:10Z</time>
      </trkpt>
      <trkpt lat="44.45053" lon="4.15357">
        <ele>369.083</ele>
        <time>2012-06-02T11:28:18Z</time>
      </trkpt>
      <trkpt lat="44.45052" lon="4.15346">
        <ele>368.923</ele>
        <time>2012-06-02T11:28:26Z</time>
      </trkpt>
      <trkpt lat="44.45051" lon="4.15341">
        <ele>369.102</ele>
        <time>2012-06-02T11:28:33Z</time>
      </trkpt>
      <trkpt lat="44.4505" lon="4.15336">
        <ele>369.112</ele>
        <time>2012-06-02T11:28:36Z</time>
      </trkpt>
      <trkpt lat="44.45047" lon="4.1532">
        <ele>369.512</ele>
        <time>2012-06-02T11:28:42Z</time>
      </trkpt>
      <trkpt lat="44.45046" lon="4.15315">
        <ele>369.763</ele>
        <time>2012-06-02T11:28:44Z</time>
      </trkpt>
      <trkpt lat="44.45043" lon="4.15299">
        <ele>372.354</ele>
        <time>2012-06-02T11:28:50Z</time>
      </trkpt>
      <trkpt lat="44.45042" lon="4.15296">
        <ele>372.263</ele>
        <time>2012-06-02T11:28:51Z</time>
      </trkpt>
      <trkpt lat="44.45037" lon="4.15269">
        <ele>371.733</ele>
        <time>2012-06-02T11:29:00Z</time>
      </trkpt>
      <trkpt lat="44.45033" lon="4.15243">
        <ele>373.895</ele>
        <time>2012-06-02T11:29:09Z</time>
      </trkpt>
      <trkpt lat="44.4503" lon="4.15219">
        <ele>373.944</ele>
        <time>2012-06-02T11:29:17Z</time>
      </trkpt>
      <trkpt lat="44.45029" lon="4.15197">
        <ele>373.823</ele>
        <time>2012-06-02T11:29:24Z</time>
      </trkpt>
      <trkpt lat="44.45028" lon="4.15186">
        <ele>374.044</ele>
        <time>2012-06-02T11:29:28Z</time>
      </trkpt>
      <trkpt lat="44.45034" lon="4.1518">
        <ele>375.655</ele>
        <time>2012-06-02T11:29:33Z</time>
      </trkpt>
      <trkpt lat="44.45035" lon="4.1518">
        <ele>376.105</ele>
        <time>2012-06-02T11:29:34Z</time>
      </trkpt>
      <trkpt lat="44.45048" lon="4.1519">
        <ele>377.894</ele>
        <time>2012-06-02T11:29:41Z</time>
      </trkpt>
      <trkpt lat="44.45061" lon="4.15198">
        <ele>379.334</ele>
        <time>2012-06-02T11:29:47Z</time>
      </trkpt>
      <trkpt lat="44.45073" lon="4.15204">
        <ele>380.924</ele>
        <time>2012-06-02T11:29:53Z</time>
      </trkpt>
      <trkpt lat="44.4508" lon="4.15207">
        <ele>381.564</ele>
        <time>2012-06-02T11:29:56Z</time>
      </trkpt>
      <trkpt lat="44.45083" lon="4.15203">
        <ele>382.013</ele>
        <time>2012-06-02T11:30:01Z</time>
      </trkpt>
      <trkpt lat="44.45078" lon="4.15199">
        <ele>382.306</ele>
        <time>2012-06-02T11:30:04Z</time>
      </trkpt>
      <trkpt lat="44.45067" lon="4.1518">
        <ele>382.566</ele>
        <time>2012-06-02T11:30:12Z</time>
      </trkpt>
      <trkpt lat="44.4507" lon="4.15159">
        <ele>382.01</ele>
        <time>2012-06-02T11:30:18Z</time>
      </trkpt>
      <trkpt lat="44.45078" lon="4.15124">
        <ele>380.15</ele>
        <time>2012-06-02T11:30:26Z</time>
      </trkpt>
      <trkpt lat="44.45086" lon="4.15087">
        <ele>379.694</ele>
        <time>2012-06-02T11:30:33Z</time>
      </trkpt>
      <trkpt lat="44.45098" lon="4.15032">
        <ele>380.009</ele>
        <time>2012-06-02T11:30:44Z</time>
      </trkpt>
      <trkpt lat="44.45109" lon="4.14999">
        <ele>381.414</ele>
        <time>2012-06-02T11:30:51Z</time>
      </trkpt>
      <trkpt lat="44.45118" lon="4.14979">
        <ele>382.863</ele>
        <time>2012-06-02T11:30:58Z</time>
      </trkpt>
      <trkpt lat="44.45126" lon="4.1496">
        <ele>383.889</ele>
        <time>2012-06-02T11:31:06Z</time>
      </trkpt>
      <trkpt lat="44.45131" lon="4.1494">
        <ele>385.863</ele>
        <time>2012-06-02T11:31:14Z</time>
      </trkpt>
      <trkpt lat="44.45132" lon="4.14933">
        <ele>386.13</ele>
        <time>2012-06-02T11:31:17Z</time>
      </trkpt>
      <trkpt lat="44.45128" lon="4.14926">
        <ele>387.118</ele>
        <time>2012-06-02T11:31:21Z</time>
      </trkpt>
      <trkpt lat="44.45112" lon="4.14905">
        <ele>387.499</ele>
        <time>2012-06-02T11:31:27Z</time>
      </trkpt>
      <trkpt lat="44.45096" lon="4.1488">
        <ele>386.759</ele>
        <time>2012-06-02T11:31:33Z</time>
      </trkpt>
      <trkpt lat="44.45084" lon="4.14842">
        <ele>383.944</ele>
        <time>2012-06-02T11:31:39Z</time>
      </trkpt>
      <trkpt lat="44.45069" lon="4.1482">
        <ele>383.731</ele>
        <time>2012-06-02T11:31:43Z</time>
      </trkpt>
      <trkpt lat="44.45055" lon="4.1482">
        <ele>383.385</ele>
        <time>2012-06-02T11:31:46Z</time>
      </trkpt>
      <trkpt lat="44.4505" lon="4.14822">
        <ele>383.463</ele>
        <time>2012-06-02T11:31:47Z</time>
      </trkpt>
      <trkpt lat="44.45035" lon="4.1483">
        <ele>382.855</ele>
        <time>2012-06-02T11:31:52Z</time>
      </trkpt>
      <trkpt lat="44.45035" lon="4.14831">
        <ele>382.945</ele>
        <time>2012-06-02T11:31:54Z</time>
      </trkpt>
      <trkpt lat="44.45034" lon="4.1483">
        <ele>383.094</ele>
        <time>2012-06-02T11:32:04Z</time>
      </trkpt>
      <trkpt lat="44.45053" lon="4.14823">
        <ele>389.863</ele>
        <time>2012-06-02T11:32:34Z</time>
      </trkpt>
      <trkpt lat="44.45065" lon="4.14819">
        <ele>390.373</ele>
        <time>2012-06-02T11:32:40Z</time>
      </trkpt>
      <trkpt lat="44.45065" lon="4.14813">
        <ele>389.722</ele>
        <time>2012-06-02T11:32:45Z</time>
      </trkpt>
      <trkpt lat="44.45053" lon="4.14803">
        <ele>390.304</ele>
        <time>2012-06-02T11:32:53Z</time>
      </trkpt>
      <trkpt lat="44.45042" lon="4.14796">
        <ele>391.794</ele>
        <time>2012-06-02T11:33:01Z</time>
      </trkpt>
      <trkpt lat="44.45029" lon="4.14787">
        <ele>392.002</ele>
        <time>2012-06-02T11:33:09Z</time>
      </trkpt>
      <trkpt lat="44.45014" lon="4.14779">
        <ele>391.043</ele>
        <time>2012-06-02T11:33:16Z</time>
      </trkpt>
      <trkpt lat="44.45001" lon="4.14774">
        <ele>390.283</ele>
        <time>2012-06-02T11:33:23Z</time>
      </trkpt>
      <trkpt lat="44.44989" lon="4.14764">
        <ele>389.942</ele>
        <time>2012-06-02T11:33:30Z</time>
      </trkpt>
      <trkpt lat="44.44984" lon="4.14749">
        <ele>390.042</ele>
        <time>2012-06-02T11:33:36Z</time>
      </trkpt>
      <trkpt lat="44.44983" lon="4.14725">
        <ele>389.972</ele>
        <time>2012-06-02T11:33:44Z</time>
      </trkpt>
      <trkpt lat="44.44982" lon="4.14702">
        <ele>390.141</ele>
        <time>2012-06-02T11:33:51Z</time>
      </trkpt>
      <trkpt lat="44.4498" lon="4.1467">
        <ele>388.35</ele>
        <time>2012-06-02T11:33:58Z</time>
      </trkpt>
      <trkpt lat="44.44979" lon="4.14655">
        <ele>387.329</ele>
        <time>2012-06-02T11:34:03Z</time>
      </trkpt>
      <trkpt lat="44.44979" lon="4.14654">
        <ele>387.102</ele>
        <time>2012-06-02T11:34:05Z</time>
      </trkpt>
      <trkpt lat="44.44979" lon="4.14656">
        <ele>387.343</ele>
        <time>2012-06-02T11:34:14Z</time>
      </trkpt>
      <trkpt lat="44.4498" lon="4.14667">
        <ele>388.152</ele>
        <time>2012-06-02T11:34:22Z</time>
      </trkpt>
      <trkpt lat="44.4498" lon="4.14669">
        <ele>388.23</ele>
        <time>2012-06-02T11:34:25Z</time>
      </trkpt>
      <trkpt lat="44.44978" lon="4.14654">
        <ele>386.329</ele>
        <time>2012-06-02T11:34:35Z</time>
      </trkpt>
      <trkpt lat="44.4498" lon="4.14638">
        <ele>382.405</ele>
        <time>2012-06-02T11:34:42Z</time>
      </trkpt>
      <trkpt lat="44.44984" lon="4.14616">
        <ele>377.846</ele>
        <time>2012-06-02T11:34:48Z</time>
      </trkpt>
      <trkpt lat="44.44984" lon="4.14614">
        <ele>377.406</ele>
        <time>2012-06-02T11:34:49Z</time>
      </trkpt>
      <trkpt lat="44.4499" lon="4.146">
        <ele>375.968</ele>
        <time>2012-06-02T11:34:54Z</time>
      </trkpt>
      <trkpt lat="44.44987" lon="4.14593">
        <ele>376.079</ele>
        <time>2012-06-02T11:34:56Z</time>
      </trkpt>
      <trkpt lat="44.4497" lon="4.14568">
        <ele>377.793</ele>
        <time>2012-06-02T11:35:04Z</time>
      </trkpt>
      <trkpt lat="44.44959" lon="4.14544">
        <ele>379.753</ele>
        <time>2012-06-02T11:35:11Z</time>
      </trkpt>
      <trkpt lat="44.44953" lon="4.14535">
        <ele>379.771</ele>
        <time>2012-06-02T11:35:14Z</time>
      </trkpt>
      <trkpt lat="44.4494" lon="4.14523">
        <ele>379.39</ele>
        <time>2012-06-02T11:35:19Z</time>
      </trkpt>
      <trkpt lat="44.44926" lon="4.14496">
        <ele>379.922</ele>
        <time>2012-06-02T11:35:26Z</time>
      </trkpt>
      <trkpt lat="44.44918" lon="4.14473">
        <ele>381.444</ele>
        <time>2012-06-02T11:35:32Z</time>
      </trkpt>
      <trkpt lat="44.44913" lon="4.14456">
        <ele>383.324</ele>
        <time>2012-06-02T11:35:38Z</time>
      </trkpt>
      <trkpt lat="44.44904" lon="4.14436">
        <ele>385.103</ele>
        <time>2012-06-02T11:35:46Z</time>
      </trkpt>
      <trkpt lat="44.44895" lon="4.14416">
        <ele>386.253</ele>
        <time>2012-06-02T11:35:54Z</time>
      </trkpt>
      <trkpt lat="44.44888" lon="4.14395">
        <ele>389.104</ele>
        <time>2012-06-02T11:36:03Z</time>
      </trkpt>
      <trkpt lat="44.44881" lon="4.14381">
        <ele>391.034</ele>
        <time>2012-06-02T11:36:10Z</time>
      </trkpt>
      <trkpt lat="44.44874" lon="4.14369">
        <ele>393.513</ele>
        <time>2012-06-02T11:36:16Z</time>
      </trkpt>
      <trkpt lat="44.44868" lon="4.14353">
        <ele>395.131</ele>
        <time>2012-06-02T11:36:23Z</time>
      </trkpt>
      <trkpt lat="44.44866" lon="4.14334">
        <ele>395.412</ele>
        <time>2012-06-02T11:36:30Z</time>
      </trkpt>
      <trkpt lat="44.44865" lon="4.1433">
        <ele>395.782</ele>
        <time>2012-06-02T11:36:32Z</time>
      </trkpt>
      <trkpt lat="44.4486" lon="4.14323">
        <ele>395.92</ele>
        <time>2012-06-02T11:36:36Z</time>
      </trkpt>
      <trkpt lat="44.4484" lon="4.14311">
        <ele>395.5</ele>
        <time>2012-06-02T11:36:43Z</time>
      </trkpt>
      <trkpt lat="44.44814" lon="4.14292">
        <ele>394.439</ele>
        <time>2012-06-02T11:36:50Z</time>
      </trkpt>
      <trkpt lat="44.4481" lon="4.14288">
        <ele>394.339</ele>
        <time>2012-06-02T11:36:51Z</time>
      </trkpt>
      <trkpt lat="44.44775" lon="4.14264">
        <ele>393.309</ele>
        <time>2012-06-02T11:36:59Z</time>
      </trkpt>
      <trkpt lat="44.44751" lon="4.14264">
        <ele>392.89</ele>
        <time>2012-06-02T11:37:04Z</time>
      </trkpt>
      <trkpt lat="44.44747" lon="4.14266">
        <ele>392.89</ele>
        <time>2012-06-02T11:37:05Z</time>
      </trkpt>
      <trkpt lat="44.44723" lon="4.14285">
        <ele>392.99</ele>
        <time>2012-06-02T11:37:12Z</time>
      </trkpt>
      <trkpt lat="44.44711" lon="4.14306">
        <ele>392.93</ele>
        <time>2012-06-02T11:37:17Z</time>
      </trkpt>
      <trkpt lat="44.44713" lon="4.14334">
        <ele>391.959</ele>
        <time>2012-06-02T11:37:22Z</time>
      </trkpt>
      <trkpt lat="44.44721" lon="4.14358">
        <ele>390.399</ele>
        <time>2012-06-02T11:37:28Z</time>
      </trkpt>
      <trkpt lat="44.44722" lon="4.14362">
        <ele>390.049</ele>
        <time>2012-06-02T11:37:30Z</time>
      </trkpt>
      <trkpt lat="44.44723" lon="4.1436">
        <ele>389.639</ele>
        <time>2012-06-02T11:37:34Z</time>
      </trkpt>
      <trkpt lat="44.4472" lon="4.14354">
        <ele>389.95</ele>
        <time>2012-06-02T11:37:37Z</time>
      </trkpt>
      <trkpt lat="44.44716" lon="4.14335">
        <ele>389.78</ele>
        <time>2012-06-02T11:37:45Z</time>
      </trkpt>
      <trkpt lat="44.44715" lon="4.14333">
        <ele>389.68</ele>
        <time>2012-06-02T11:37:46Z</time>
      </trkpt>
      <trkpt lat="44.44711" lon="4.1433">
        <ele>389.511</ele>
        <time>2012-06-02T11:37:50Z</time>
      </trkpt>
      <trkpt lat="44.44709" lon="4.14331">
        <ele>389.591</ele>
        <time>2012-06-02T11:37:59Z</time>
      </trkpt>
      <trkpt lat="44.44705" lon="4.1433">
        <ele>391.151</ele>
        <time>2012-06-02T11:38:05Z</time>
      </trkpt>
      <trkpt lat="44.44703" lon="4.14331">
        <ele>391.833</ele>
        <time>2012-06-02T11:38:10Z</time>
      </trkpt>
      <trkpt lat="44.44698" lon="4.1434">
        <ele>393.571</ele>
        <time>2012-06-02T11:38:26Z</time>
      </trkpt>
      <trkpt lat="44.44693" lon="4.14346">
        <ele>395.151</ele>
        <time>2012-06-02T11:38:33Z</time>
      </trkpt>
      <trkpt lat="44.44693" lon="4.14346">
        <ele>394.709</ele>
        <time>2012-06-02T11:38:35Z</time>
      </trkpt>
      <trkpt lat="44.44691" lon="4.14348">
        <ele>394.731</ele>
        <time>2012-06-02T11:38:41Z</time>
      </trkpt>
      <trkpt lat="44.44686" lon="4.14346">
        <ele>396.06</ele>
        <time>2012-06-02T11:38:49Z</time>
      </trkpt>
      <trkpt lat="44.44683" lon="4.14346">
        <ele>397.731</ele>
        <time>2012-06-02T11:38:55Z</time>
      </trkpt>
      <trkpt lat="44.4468" lon="4.14352">
        <ele>398.131</ele>
        <time>2012-06-02T11:39:02Z</time>
      </trkpt>
      <trkpt lat="44.4468" lon="4.14352">
        <ele>398.139</ele>
        <time>2012-06-02T11:39:03Z</time>
      </trkpt>
      <trkpt lat="44.44674" lon="4.14356">
        <ele>399.561</ele>
        <time>2012-06-02T11:39:10Z</time>
      </trkpt>
      <trkpt lat="44.44669" lon="4.14357">
        <ele>400.94</ele>
        <time>2012-06-02T11:39:17Z</time>
      </trkpt>
      <trkpt lat="44.44667" lon="4.14353">
        <ele>400.929</ele>
        <time>2012-06-02T11:39:22Z</time>
      </trkpt>
      <trkpt lat="44.44662" lon="4.14348">
        <ele>401.125</ele>
        <time>2012-06-02T11:39:29Z</time>
      </trkpt>
      <trkpt lat="44.44655" lon="4.1434">
        <ele>401.929</ele>
        <time>2012-06-02T11:39:43Z</time>
      </trkpt>
      <trkpt lat="44.44651" lon="4.14332">
        <ele>401.09</ele>
        <time>2012-06-02T11:39:49Z</time>
      </trkpt>
      <trkpt lat="44.4465" lon="4.14328">
        <ele>401.821</ele>
        <time>2012-06-02T11:39:53Z</time>
      </trkpt>
      <trkpt lat="44.44647" lon="4.14327">
        <ele>402.662</ele>
        <time>2012-06-02T11:40:00Z</time>
      </trkpt>
      <trkpt lat="44.44643" lon="4.14325">
        <ele>403.781</ele>
        <time>2012-06-02T11:40:07Z</time>
      </trkpt>
      <trkpt lat="44.44641" lon="4.14324">
        <ele>404.2</ele>
        <time>2012-06-02T11:40:11Z</time>
      </trkpt>
      <trkpt lat="44.44634" lon="4.14321">
        <ele>405.721</ele>
        <time>2012-06-02T11:40:20Z</time>
      </trkpt>
      <trkpt lat="44.44633" lon="4.14321">
        <ele>405.396</ele>
        <time>2012-06-02T11:40:22Z</time>
      </trkpt>
      <trkpt lat="44.44626" lon="4.14317">
        <ele>404.85</ele>
        <time>2012-06-02T11:40:30Z</time>
      </trkpt>
      <trkpt lat="44.44616" lon="4.1431">
        <ele>406.401</ele>
        <time>2012-06-02T11:40:37Z</time>
      </trkpt>
      <trkpt lat="44.44604" lon="4.14304">
        <ele>404.237</ele>
        <time>2012-06-02T11:40:43Z</time>
      </trkpt>
      <trkpt lat="44.44594" lon="4.14305">
        <ele>404.84</ele>
        <time>2012-06-02T11:40:48Z</time>
      </trkpt>
      <trkpt lat="44.44583" lon="4.14311">
        <ele>407.562</ele>
        <time>2012-06-02T11:40:54Z</time>
      </trkpt>
      <trkpt lat="44.44574" lon="4.14318">
        <ele>409.903</ele>
        <time>2012-06-02T11:41:01Z</time>
      </trkpt>
      <trkpt lat="44.44576" lon="4.14319">
        <ele>409.66</ele>
        <time>2012-06-02T11:41:05Z</time>
      </trkpt>
      <trkpt lat="44.44578" lon="4.14318">
        <ele>409.138</ele>
        <time>2012-06-02T11:41:06Z</time>
      </trkpt>
      <trkpt lat="44.44595" lon="4.14302">
        <ele>404.986</ele>
        <time>2012-06-02T11:41:12Z</time>
      </trkpt>
      <trkpt lat="44.44597" lon="4.143">
        <ele>404.485</ele>
        <time>2012-06-02T11:41:13Z</time>
      </trkpt>
      <trkpt lat="44.44595" lon="4.14291">
        <ele>402.646</ele>
        <time>2012-06-02T11:41:17Z</time>
      </trkpt>
      <trkpt lat="44.4459" lon="4.1429">
        <ele>402.368</ele>
        <time>2012-06-02T11:41:21Z</time>
      </trkpt>
      <trkpt lat="44.44589" lon="4.14289">
        <ele>402.05</ele>
        <time>2012-06-02T11:41:23Z</time>
      </trkpt>
      <trkpt lat="44.44569" lon="4.14296">
        <ele>399.669</ele>
        <time>2012-06-02T11:42:06Z</time>
      </trkpt>
      <trkpt lat="44.44538" lon="4.14303">
        <ele>399.909</ele>
        <time>2012-06-02T11:42:14Z</time>
      </trkpt>
      <trkpt lat="44.44522" lon="4.14304">
        <ele>398.647</ele>
        <time>2012-06-02T11:42:19Z</time>
      </trkpt>
      <trkpt lat="44.44518" lon="4.14304">
        <ele>397.524</ele>
        <time>2012-06-02T11:42:20Z</time>
      </trkpt>
      <trkpt lat="44.44509" lon="4.14306">
        <ele>395.631</ele>
        <time>2012-06-02T11:42:22Z</time>
      </trkpt>
      <trkpt lat="44.44484" lon="4.14317">
        <ele>392.283</ele>
        <time>2012-06-02T11:42:27Z</time>
      </trkpt>
      <trkpt lat="44.44474" lon="4.1432">
        <ele>390.863</ele>
        <time>2012-06-02T11:42:29Z</time>
      </trkpt>
      <trkpt lat="44.44457" lon="4.14321">
        <ele>388.001</ele>
        <time>2012-06-02T11:42:32Z</time>
      </trkpt>
      <trkpt lat="44.44436" lon="4.14329">
        <ele>385.303</ele>
        <time>2012-06-02T11:42:36Z</time>
      </trkpt>
      <trkpt lat="44.44416" lon="4.1434">
        <ele>382.013</ele>
        <time>2012-06-02T11:42:40Z</time>
      </trkpt>
      <trkpt lat="44.44398" lon="4.14344">
        <ele>379.832</ele>
        <time>2012-06-02T11:42:43Z</time>
      </trkpt>
      <trkpt lat="44.44363" lon="4.14345">
        <ele>376.164</ele>
        <time>2012-06-02T11:42:48Z</time>
      </trkpt>
      <trkpt lat="44.44335" lon="4.14334">
        <ele>375.327</ele>
        <time>2012-06-02T11:42:52Z</time>
      </trkpt>
      <trkpt lat="44.44309" lon="4.14313">
        <ele>376.47</ele>
        <time>2012-06-02T11:42:57Z</time>
      </trkpt>
      <trkpt lat="44.44301" lon="4.14305">
        <ele>376.449</ele>
        <time>2012-06-02T11:42:59Z</time>
      </trkpt>
      <trkpt lat="44.44281" lon="4.14287">
        <ele>376.369</ele>
        <time>2012-06-02T11:43:03Z</time>
      </trkpt>
      <trkpt lat="44.44256" lon="4.1426">
        <ele>378.473</ele>
        <time>2012-06-02T11:43:09Z</time>
      </trkpt>
      <trkpt lat="44.44241" lon="4.14247">
        <ele>379.9</ele>
        <time>2012-06-02T11:43:15Z</time>
      </trkpt>
      <trkpt lat="44.44216" lon="4.14236">
        <ele>378.046</ele>
        <time>2012-06-02T11:43:21Z</time>
      </trkpt>
      <trkpt lat="44.44194" lon="4.14226">
        <ele>376.925</ele>
        <time>2012-06-02T11:43:26Z</time>
      </trkpt>
      <trkpt lat="44.4418" lon="4.14219">
        <ele>374.855</ele>
        <time>2012-06-02T11:43:31Z</time>
      </trkpt>
      <trkpt lat="44.44164" lon="4.14215">
        <ele>373.104</ele>
        <time>2012-06-02T11:43:36Z</time>
      </trkpt>
      <trkpt lat="44.44146" lon="4.14201">
        <ele>371.376</ele>
        <time>2012-06-02T11:43:41Z</time>
      </trkpt>
      <trkpt lat="44.44133" lon="4.14186">
        <ele>370.918</ele>
        <time>2012-06-02T11:43:46Z</time>
      </trkpt>
      <trkpt lat="44.44124" lon="4.14177">
        <ele>371.489</ele>
        <time>2012-06-02T11:43:50Z</time>
      </trkpt>
      <trkpt lat="44.44111" lon="4.14167">
        <ele>370.516</ele>
        <time>2012-06-02T11:43:56Z</time>
      </trkpt>
      <trkpt lat="44.44101" lon="4.14166">
        <ele>366.982</ele>
        <time>2012-06-02T11:44:01Z</time>
      </trkpt>
      <trkpt lat="44.44085" lon="4.14153">
        <ele>363.703</ele>
        <time>2012-06-02T11:44:07Z</time>
      </trkpt>
      <trkpt lat="44.44079" lon="4.14147">
        <ele>362.262</ele>
        <time>2012-06-02T11:44:09Z</time>
      </trkpt>
      <trkpt lat="44.44067" lon="4.14139">
        <ele>359.711</ele>
        <time>2012-06-02T11:44:12Z</time>
      </trkpt>
      <trkpt lat="44.44038" lon="4.14113">
        <ele>354.741</ele>
        <time>2012-06-02T11:44:19Z</time>
      </trkpt>
      <trkpt lat="44.4403" lon="4.14107">
        <ele>352.963</ele>
        <time>2012-06-02T11:44:22Z</time>
      </trkpt>
      <trkpt lat="44.44025" lon="4.14112">
        <ele>351.025</ele>
        <time>2012-06-02T11:44:26Z</time>
      </trkpt>
      <trkpt lat="44.44022" lon="4.14139">
        <ele>350.108</ele>
        <time>2012-06-02T11:44:33Z</time>
      </trkpt>
      <trkpt lat="44.44021" lon="4.14167">
        <ele>348.597</ele>
        <time>2012-06-02T11:44:40Z</time>
      </trkpt>
      <trkpt lat="44.44021" lon="4.14174">
        <ele>348.048</ele>
        <time>2012-06-02T11:44:44Z</time>
      </trkpt>
      <trkpt lat="44.44021" lon="4.14183">
        <ele>348.018</ele>
        <time>2012-06-02T11:44:48Z</time>
      </trkpt>
      <trkpt lat="44.44026" lon="4.142">
        <ele>348.078</ele>
        <time>2012-06-02T11:44:55Z</time>
      </trkpt>
      <trkpt lat="44.44031" lon="4.14223">
        <ele>347.287</ele>
        <time>2012-06-02T11:45:01Z</time>
      </trkpt>
      <trkpt lat="44.44035" lon="4.14252">
        <ele>346.597</ele>
        <time>2012-06-02T11:45:08Z</time>
      </trkpt>
      <trkpt lat="44.44036" lon="4.14259">
        <ele>345.987</ele>
        <time>2012-06-02T11:45:13Z</time>
      </trkpt>
      <trkpt lat="44.44037" lon="4.14262">
        <ele>346.088</ele>
        <time>2012-06-02T11:45:18Z</time>
      </trkpt>
      <trkpt lat="44.44037" lon="4.14262">
        <ele>345.982</ele>
        <time>2012-06-02T11:45:19Z</time>
      </trkpt>
      <trkpt lat="44.44037" lon="4.14262">
        <ele>345.726</ele>
        <time>2012-06-02T11:46:35Z</time>
      </trkpt>
      <trkpt lat="44.44038" lon="4.14273">
        <ele>344.887</ele>
        <time>2012-06-02T11:46:59Z</time>
      </trkpt>
      <trkpt lat="44.44048" lon="4.14296">
        <ele>344.086</ele>
        <time>2012-06-02T11:47:05Z</time>
      </trkpt>
      <trkpt lat="44.4406" lon="4.14312">
        <ele>342.294</ele>
        <time>2012-06-02T11:47:10Z</time>
      </trkpt>
      <trkpt lat="44.44062" lon="4.14318">
        <ele>342.085</ele>
        <time>2012-06-02T11:47:11Z</time>
      </trkpt>
      <trkpt lat="44.4407" lon="4.14339">
        <ele>341.426</ele>
        <time>2012-06-02T11:47:15Z</time>
      </trkpt>
      <trkpt lat="44.44085" lon="4.14363">
        <ele>340.395</ele>
        <time>2012-06-02T11:47:20Z</time>
      </trkpt>
      <trkpt lat="44.44109" lon="4.1439">
        <ele>338.354</ele>
        <time>2012-06-02T11:47:26Z</time>
      </trkpt>
      <trkpt lat="44.44115" lon="4.14409">
        <ele>337.174</ele>
        <time>2012-06-02T11:47:29Z</time>
      </trkpt>
      <trkpt lat="44.44112" lon="4.14428">
        <ele>336.045</ele>
        <time>2012-06-02T11:47:32Z</time>
      </trkpt>
      <trkpt lat="44.44109" lon="4.14458">
        <ele>333.964</ele>
        <time>2012-06-02T11:47:36Z</time>
      </trkpt>
      <trkpt lat="44.44099" lon="4.14482">
        <ele>332.415</ele>
        <time>2012-06-02T11:47:40Z</time>
      </trkpt>
      <trkpt lat="44.44089" lon="4.14485">
        <ele>331.685</ele>
        <time>2012-06-02T11:47:42Z</time>
      </trkpt>
      <trkpt lat="44.44062" lon="4.14494">
        <ele>330.205</ele>
        <time>2012-06-02T11:47:48Z</time>
      </trkpt>
      <trkpt lat="44.44047" lon="4.145">
        <ele>329.916</ele>
        <time>2012-06-02T11:47:51Z</time>
      </trkpt>
      <trkpt lat="44.44004" lon="4.14506">
        <ele>325.643</ele>
        <time>2012-06-02T11:47:58Z</time>
      </trkpt>
      <trkpt lat="44.43991" lon="4.14505">
        <ele>324.293</ele>
        <time>2012-06-02T11:48:00Z</time>
      </trkpt>
      <trkpt lat="44.43946" lon="4.14509">
        <ele>320.925</ele>
        <time>2012-06-02T11:48:07Z</time>
      </trkpt>
      <trkpt lat="44.43916" lon="4.14506">
        <ele>319.867</ele>
        <time>2012-06-02T11:48:12Z</time>
      </trkpt>
      <trkpt lat="44.43889" lon="4.14509">
        <ele>319.427</ele>
        <time>2012-06-02T11:48:17Z</time>
      </trkpt>
      <trkpt lat="44.43857" lon="4.14529">
        <ele>317.394</ele>
        <time>2012-06-02T11:48:23Z</time>
      </trkpt>
      <trkpt lat="44.43843" lon="4.14522">
        <ele>316.917</ele>
        <time>2012-06-02T11:48:27Z</time>
      </trkpt>
      <trkpt lat="44.43829" lon="4.14517">
        <ele>316.467</ele>
        <time>2012-06-02T11:48:30Z</time>
      </trkpt>
      <trkpt lat="44.4382" lon="4.14518">
        <ele>316.077</ele>
        <time>2012-06-02T11:48:32Z</time>
      </trkpt>
      <trkpt lat="44.43807" lon="4.14522">
        <ele>315.526</ele>
        <time>2012-06-02T11:48:35Z</time>
      </trkpt>
      <trkpt lat="44.43782" lon="4.14533">
        <ele>314.006</ele>
        <time>2012-06-02T11:48:40Z</time>
      </trkpt>
      <trkpt lat="44.43756" lon="4.14558">
        <ele>312.856</ele>
        <time>2012-06-02T11:48:46Z</time>
      </trkpt>
      <trkpt lat="44.43739" lon="4.14572">
        <ele>312.347</ele>
        <time>2012-06-02T11:48:50Z</time>
      </trkpt>
      <trkpt lat="44.43714" lon="4.14593">
        <ele>312.018</ele>
        <time>2012-06-02T11:48:55Z</time>
      </trkpt>
      <trkpt lat="44.43692" lon="4.14604">
        <ele>311.596</ele>
        <time>2012-06-02T11:48:59Z</time>
      </trkpt>
      <trkpt lat="44.43676" lon="4.14607">
        <ele>310.825</ele>
        <time>2012-06-02T11:49:02Z</time>
      </trkpt>
      <trkpt lat="44.43652" lon="4.14618">
        <ele>309.476</ele>
        <time>2012-06-02T11:49:07Z</time>
      </trkpt>
      <trkpt lat="44.43632" lon="4.14628">
        <ele>310.068</ele>
        <time>2012-06-02T11:49:11Z</time>
      </trkpt>
      <trkpt lat="44.43614" lon="4.1465">
        <ele>310.46</ele>
        <time>2012-06-02T11:49:17Z</time>
      </trkpt>
      <trkpt lat="44.43607" lon="4.14671">
        <ele>310.79</ele>
        <time>2012-06-02T11:49:24Z</time>
      </trkpt>
      <trkpt lat="44.43598" lon="4.14696">
        <ele>312.31</ele>
        <time>2012-06-02T11:49:31Z</time>
      </trkpt>
      <trkpt lat="44.43591" lon="4.14708">
        <ele>314.59</ele>
        <time>2012-06-02T11:49:38Z</time>
      </trkpt>
      <trkpt lat="44.43583" lon="4.14717">
        <ele>315.909</ele>
        <time>2012-06-02T11:49:44Z</time>
      </trkpt>
      <trkpt lat="44.43572" lon="4.14727">
        <ele>315.817</ele>
        <time>2012-06-02T11:49:50Z</time>
      </trkpt>
      <trkpt lat="44.43563" lon="4.14735">
        <ele>314.247</ele>
        <time>2012-06-02T11:49:57Z</time>
      </trkpt>
      <trkpt lat="44.43557" lon="4.14741">
        <ele>315.708</ele>
        <time>2012-06-02T11:50:03Z</time>
      </trkpt>
      <trkpt lat="44.4355" lon="4.14748">
        <ele>315.787</ele>
        <time>2012-06-02T11:50:09Z</time>
      </trkpt>
      <trkpt lat="44.43547" lon="4.14754">
        <ele>317.649</ele>
        <time>2012-06-02T11:50:13Z</time>
      </trkpt>
      <trkpt lat="44.43547" lon="4.14757">
        <ele>318.229</ele>
        <time>2012-06-02T11:50:15Z</time>
      </trkpt>
      <trkpt lat="44.43549" lon="4.14758">
        <ele>318.419</ele>
        <time>2012-06-02T11:50:17Z</time>
      </trkpt>
      <trkpt lat="44.43554" lon="4.14766">
        <ele>319.828</ele>
        <time>2012-06-02T11:50:23Z</time>
      </trkpt>
      <trkpt lat="44.43562" lon="4.14774">
        <ele>322.339</ele>
        <time>2012-06-02T11:50:30Z</time>
      </trkpt>
      <trkpt lat="44.43568" lon="4.14781">
        <ele>323.177</ele>
        <time>2012-06-02T11:50:36Z</time>
      </trkpt>
      <trkpt lat="44.4358" lon="4.14793">
        <ele>323.457</ele>
        <time>2012-06-02T11:50:42Z</time>
      </trkpt>
      <trkpt lat="44.43594" lon="4.14815">
        <ele>322.546</ele>
        <time>2012-06-02T11:50:49Z</time>
      </trkpt>
      <trkpt lat="44.4361" lon="4.1484">
        <ele>322.737</ele>
        <time>2012-06-02T11:50:57Z</time>
      </trkpt>
      <trkpt lat="44.43622" lon="4.14861">
        <ele>321.927</ele>
        <time>2012-06-02T11:51:04Z</time>
      </trkpt>
      <trkpt lat="44.43634" lon="4.14864">
        <ele>322.148</ele>
        <time>2012-06-02T11:51:11Z</time>
      </trkpt>
      <trkpt lat="44.43637" lon="4.14865">
        <ele>322.468</ele>
        <time>2012-06-02T11:51:13Z</time>
      </trkpt>
      <trkpt lat="44.43645" lon="4.14865">
        <ele>322.017</ele>
        <time>2012-06-02T11:51:19Z</time>
      </trkpt>
      <trkpt lat="44.43651" lon="4.14867">
        <ele>323.008</ele>
        <time>2012-06-02T11:51:24Z</time>
      </trkpt>
      <trkpt lat="44.43656" lon="4.14867">
        <ele>324.322</ele>
        <time>2012-06-02T11:51:31Z</time>
      </trkpt>
      <trkpt lat="44.43657" lon="4.14866">
        <ele>325.059</ele>
        <time>2012-06-02T11:51:37Z</time>
      </trkpt>
      <trkpt lat="44.43659" lon="4.14866">
        <ele>325.809</ele>
        <time>2012-06-02T11:51:40Z</time>
      </trkpt>
      <trkpt lat="44.43662" lon="4.14867">
        <ele>326.017</ele>
        <time>2012-06-02T11:51:45Z</time>
      </trkpt>
      <trkpt lat="44.43665" lon="4.14867">
        <ele>325.148</ele>
        <time>2012-06-02T11:51:49Z</time>
      </trkpt>
      <trkpt lat="44.4367" lon="4.14866">
        <ele>323.558</ele>
        <time>2012-06-02T11:51:55Z</time>
      </trkpt>
      <trkpt lat="44.43671" lon="4.14865">
        <ele>324.787</ele>
        <time>2012-06-02T11:51:59Z</time>
      </trkpt>
      <trkpt lat="44.43676" lon="4.14865">
        <ele>326.4</ele>
        <time>2012-06-02T11:52:14Z</time>
      </trkpt>
      <trkpt lat="44.43682" lon="4.14865">
        <ele>327.719</ele>
        <time>2012-06-02T11:52:23Z</time>
      </trkpt>
      <trkpt lat="44.43689" lon="4.14866">
        <ele>328.759</ele>
        <time>2012-06-02T11:52:31Z</time>
      </trkpt>
      <trkpt lat="44.43695" lon="4.14864">
        <ele>330.488</ele>
        <time>2012-06-02T11:52:39Z</time>
      </trkpt>
      <trkpt lat="44.437" lon="4.14863">
        <ele>330.928</ele>
        <time>2012-06-02T11:52:46Z</time>
      </trkpt>
      <trkpt lat="44.437" lon="4.14863">
        <ele>330.962</ele>
        <time>2012-06-02T11:52:47Z</time>
      </trkpt>
      <trkpt lat="44.43708" lon="4.14862">
        <ele>332.038</ele>
        <time>2012-06-02T11:52:57Z</time>
      </trkpt>
      <trkpt lat="44.43718" lon="4.14865">
        <ele>332.748</ele>
        <time>2012-06-02T11:53:03Z</time>
      </trkpt>
      <trkpt lat="44.4372" lon="4.14865">
        <ele>332.969</ele>
        <time>2012-06-02T11:53:04Z</time>
      </trkpt>
      <trkpt lat="44.43729" lon="4.14869">
        <ele>333.468</ele>
        <time>2012-06-02T11:53:10Z</time>
      </trkpt>
      <trkpt lat="44.43731" lon="4.1487">
        <ele>333.438</ele>
        <time>2012-06-02T11:53:11Z</time>
      </trkpt>
      <trkpt lat="44.43742" lon="4.14874">
        <ele>334.829</ele>
        <time>2012-06-02T11:53:18Z</time>
      </trkpt>
      <trkpt lat="44.43752" lon="4.14877">
        <ele>334.438</ele>
        <time>2012-06-02T11:53:25Z</time>
      </trkpt>
      <trkpt lat="44.4376" lon="4.14881">
        <ele>334.488</ele>
        <time>2012-06-02T11:53:31Z</time>
      </trkpt>
      <trkpt lat="44.43768" lon="4.14886">
        <ele>334.768</ele>
        <time>2012-06-02T11:53:38Z</time>
      </trkpt>
      <trkpt lat="44.43779" lon="4.1489">
        <ele>336.26</ele>
        <time>2012-06-02T11:53:45Z</time>
      </trkpt>
      <trkpt lat="44.43787" lon="4.14892">
        <ele>338.69</ele>
        <time>2012-06-02T11:53:51Z</time>
      </trkpt>
      <trkpt lat="44.43793" lon="4.14894">
        <ele>340.11</ele>
        <time>2012-06-02T11:53:55Z</time>
      </trkpt>
      <trkpt lat="44.43799" lon="4.14898">
        <ele>340.94</ele>
        <time>2012-06-02T11:54:00Z</time>
      </trkpt>
      <trkpt lat="44.43808" lon="4.14907">
        <ele>341.659</ele>
        <time>2012-06-02T11:54:07Z</time>
      </trkpt>
      <trkpt lat="44.43819" lon="4.14915">
        <ele>342.71</ele>
        <time>2012-06-02T11:54:14Z</time>
      </trkpt>
      <trkpt lat="44.4383" lon="4.1492">
        <ele>344.319</ele>
        <time>2012-06-02T11:54:21Z</time>
      </trkpt>
      <trkpt lat="44.43839" lon="4.14927">
        <ele>345.289</ele>
        <time>2012-06-02T11:54:27Z</time>
      </trkpt>
      <trkpt lat="44.43851" lon="4.14938">
        <ele>346.53</ele>
        <time>2012-06-02T11:54:36Z</time>
      </trkpt>
      <trkpt lat="44.43859" lon="4.14945">
        <ele>347.52</ele>
        <time>2012-06-02T11:54:42Z</time>
      </trkpt>
      <trkpt lat="44.43871" lon="4.14954">
        <ele>348.399</ele>
        <time>2012-06-02T11:54:50Z</time>
      </trkpt>
      <trkpt lat="44.4388" lon="4.1496">
        <ele>349.479</ele>
        <time>2012-06-02T11:54:56Z</time>
      </trkpt>
      <trkpt lat="44.4389" lon="4.14969">
        <ele>350.759</ele>
        <time>2012-06-02T11:55:04Z</time>
      </trkpt>
      <trkpt lat="44.43902" lon="4.14976">
        <ele>352.01</ele>
        <time>2012-06-02T11:55:11Z</time>
      </trkpt>
      <trkpt lat="44.43915" lon="4.14981">
        <ele>352.889</ele>
        <time>2012-06-02T11:55:19Z</time>
      </trkpt>
      <trkpt lat="44.43929" lon="4.14985">
        <ele>353.649</ele>
        <time>2012-06-02T11:55:28Z</time>
      </trkpt>
      <trkpt lat="44.43944" lon="4.14995">
        <ele>354.539</ele>
        <time>2012-06-02T11:55:37Z</time>
      </trkpt>
      <trkpt lat="44.43959" lon="4.15003">
        <ele>354.879</ele>
        <time>2012-06-02T11:55:44Z</time>
      </trkpt>
      <trkpt lat="44.43973" lon="4.15018">
        <ele>354.438</ele>
        <time>2012-06-02T11:55:51Z</time>
      </trkpt>
      <trkpt lat="44.43992" lon="4.15042">
        <ele>353.267</ele>
        <time>2012-06-02T11:55:59Z</time>
      </trkpt>
      <trkpt lat="44.44006" lon="4.15065">
        <ele>352.008</ele>
        <time>2012-06-02T11:56:05Z</time>
      </trkpt>
      <trkpt lat="44.4402" lon="4.15081">
        <ele>352.09</ele>
        <time>2012-06-02T11:56:11Z</time>
      </trkpt>
      <trkpt lat="44.44031" lon="4.15089">
        <ele>353.241</ele>
        <time>2012-06-02T11:56:16Z</time>
      </trkpt>
      <trkpt lat="44.44045" lon="4.15108">
        <ele>355.56</ele>
        <time>2012-06-02T11:56:24Z</time>
      </trkpt>
      <trkpt lat="44.44057" lon="4.15132">
        <ele>356.149</ele>
        <time>2012-06-02T11:56:33Z</time>
      </trkpt>
      <trkpt lat="44.44068" lon="4.15147">
        <ele>357.701</ele>
        <time>2012-06-02T11:56:40Z</time>
      </trkpt>
      <trkpt lat="44.44088" lon="4.15158">
        <ele>360.2</ele>
        <time>2012-06-02T11:56:50Z</time>
      </trkpt>
      <trkpt lat="44.44101" lon="4.15168">
        <ele>360.959</ele>
        <time>2012-06-02T11:56:57Z</time>
      </trkpt>
      <trkpt lat="44.441" lon="4.15179">
        <ele>359.737</ele>
        <time>2012-06-02T11:57:01Z</time>
      </trkpt>
      <trkpt lat="44.44095" lon="4.15186">
        <ele>359.276</ele>
        <time>2012-06-02T11:57:03Z</time>
      </trkpt>
      <trkpt lat="44.44083" lon="4.15208">
        <ele>354.806</ele>
        <time>2012-06-02T11:57:10Z</time>
      </trkpt>
      <trkpt lat="44.44082" lon="4.15211">
        <ele>354.196</ele>
        <time>2012-06-02T11:57:11Z</time>
      </trkpt>
      <trkpt lat="44.44089" lon="4.15224">
        <ele>353.068</ele>
        <time>2012-06-02T11:57:16Z</time>
      </trkpt>
      <trkpt lat="44.44089" lon="4.15234">
        <ele>352.009</ele>
        <time>2012-06-02T11:57:21Z</time>
      </trkpt>
      <trkpt lat="44.44089" lon="4.15234">
        <ele>351.985</ele>
        <time>2012-06-02T11:57:22Z</time>
      </trkpt>
      <trkpt lat="44.44098" lon="4.15233">
        <ele>352.04</ele>
        <time>2012-06-02T11:57:36Z</time>
      </trkpt>
      <trkpt lat="44.44096" lon="4.15245">
        <ele>350.808</ele>
        <time>2012-06-02T11:57:40Z</time>
      </trkpt>
      <trkpt lat="44.44083" lon="4.15272">
        <ele>347.226</ele>
        <time>2012-06-02T11:57:46Z</time>
      </trkpt>
      <trkpt lat="44.4406" lon="4.15291">
        <ele>343.373</ele>
        <time>2012-06-02T11:57:52Z</time>
      </trkpt>
      <trkpt lat="44.44037" lon="4.15308">
        <ele>339.374</ele>
        <time>2012-06-02T11:57:58Z</time>
      </trkpt>
      <trkpt lat="44.44022" lon="4.15319">
        <ele>336.285</ele>
        <time>2012-06-02T11:58:03Z</time>
      </trkpt>
      <trkpt lat="44.44007" lon="4.15337">
        <ele>332.755</ele>
        <time>2012-06-02T11:58:09Z</time>
      </trkpt>
      <trkpt lat="44.43996" lon="4.15346">
        <ele>330.044</ele>
        <time>2012-06-02T11:58:13Z</time>
      </trkpt>
      <trkpt lat="44.43975" lon="4.15358">
        <ele>327.054</ele>
        <time>2012-06-02T11:58:19Z</time>
      </trkpt>
      <trkpt lat="44.43944" lon="4.1538">
        <ele>323.615</ele>
        <time>2012-06-02T11:58:27Z</time>
      </trkpt>
      <trkpt lat="44.43935" lon="4.15387">
        <ele>322.896</ele>
        <time>2012-06-02T11:58:29Z</time>
      </trkpt>
      <trkpt lat="44.43919" lon="4.15401">
        <ele>321.306</ele>
        <time>2012-06-02T11:58:33Z</time>
      </trkpt>
      <trkpt lat="44.43899" lon="4.15411">
        <ele>319.806</ele>
        <time>2012-06-02T11:58:38Z</time>
      </trkpt>
      <trkpt lat="44.43888" lon="4.15422">
        <ele>318.826</ele>
        <time>2012-06-02T11:58:41Z</time>
      </trkpt>
      <trkpt lat="44.43869" lon="4.15435">
        <ele>317.417</ele>
        <time>2012-06-02T11:58:46Z</time>
      </trkpt>
      <trkpt lat="44.4386" lon="4.15445">
        <ele>316.848</ele>
        <time>2012-06-02T11:58:49Z</time>
      </trkpt>
      <trkpt lat="44.43836" lon="4.15463">
        <ele>315.699</ele>
        <time>2012-06-02T11:58:56Z</time>
      </trkpt>
      <trkpt lat="44.43817" lon="4.15479">
        <ele>314.98</ele>
        <time>2012-06-02T11:59:02Z</time>
      </trkpt>
      <trkpt lat="44.43802" lon="4.15491">
        <ele>314.629</ele>
        <time>2012-06-02T11:59:06Z</time>
      </trkpt>
      <trkpt lat="44.4378" lon="4.15512">
        <ele>313.928</ele>
        <time>2012-06-02T11:59:12Z</time>
      </trkpt>
      <trkpt lat="44.4376" lon="4.15537">
        <ele>313.189</ele>
        <time>2012-06-02T11:59:18Z</time>
      </trkpt>
      <trkpt lat="44.43756" lon="4.15541">
        <ele>312.939</ele>
        <time>2012-06-02T11:59:19Z</time>
      </trkpt>
      <trkpt lat="44.43728" lon="4.15578">
        <ele>309.798</ele>
        <time>2012-06-02T11:59:27Z</time>
      </trkpt>
      <trkpt lat="44.43721" lon="4.15586">
        <ele>308.878</ele>
        <time>2012-06-02T11:59:29Z</time>
      </trkpt>
      <trkpt lat="44.43701" lon="4.1561">
        <ele>306.587</ele>
        <time>2012-06-02T11:59:35Z</time>
      </trkpt>
      <trkpt lat="44.43686" lon="4.15637">
        <ele>304.647</ele>
        <time>2012-06-02T11:59:40Z</time>
      </trkpt>
      <trkpt lat="44.43659" lon="4.15673">
        <ele>301.467</ele>
        <time>2012-06-02T11:59:48Z</time>
      </trkpt>
      <trkpt lat="44.43653" lon="4.15682">
        <ele>300.576</ele>
        <time>2012-06-02T11:59:50Z</time>
      </trkpt>
      <trkpt lat="44.43634" lon="4.1571">
        <ele>297.797</ele>
        <time>2012-06-02T11:59:56Z</time>
      </trkpt>
      <trkpt lat="44.43627" lon="4.15724">
        <ele>296.857</ele>
        <time>2012-06-02T12:00:00Z</time>
      </trkpt>
      <trkpt lat="44.43623" lon="4.15732">
        <ele>296.909</ele>
        <time>2012-06-02T12:00:05Z</time>
      </trkpt>
      <trkpt lat="44.43626" lon="4.15742">
        <ele>295.938</ele>
        <time>2012-06-02T12:00:16Z</time>
      </trkpt>
      <trkpt lat="44.43626" lon="4.15759">
        <ele>294.036</ele>
        <time>2012-06-02T12:00:20Z</time>
      </trkpt>
      <trkpt lat="44.43622" lon="4.15775">
        <ele>292.776</ele>
        <time>2012-06-02T12:00:23Z</time>
      </trkpt>
      <trkpt lat="44.43604" lon="4.15808">
        <ele>290.395</ele>
        <time>2012-06-02T12:00:29Z</time>
      </trkpt>
      <trkpt lat="44.43582" lon="4.15849">
        <ele>285.509</ele>
        <time>2012-06-02T12:00:35Z</time>
      </trkpt>
      <trkpt lat="44.43564" lon="4.15882">
        <ele>281.812</ele>
        <time>2012-06-02T12:00:40Z</time>
      </trkpt>
      <trkpt lat="44.43554" lon="4.159">
        <ele>280.113</ele>
        <time>2012-06-02T12:00:43Z</time>
      </trkpt>
      <trkpt lat="44.43525" lon="4.15927">
        <ele>276.696</ele>
        <time>2012-06-02T12:00:49Z</time>
      </trkpt>
      <trkpt lat="44.43492" lon="4.15955">
        <ele>274.928</ele>
        <time>2012-06-02T12:00:55Z</time>
      </trkpt>
      <trkpt lat="44.43461" lon="4.15978">
        <ele>273.768</ele>
        <time>2012-06-02T12:01:01Z</time>
      </trkpt>
      <trkpt lat="44.4342" lon="4.16003">
        <ele>272.608</ele>
        <time>2012-06-02T12:01:09Z</time>
      </trkpt>
      <trkpt lat="44.43374" lon="4.16028">
        <ele>271.018</ele>
        <time>2012-06-02T12:01:18Z</time>
      </trkpt>
      <trkpt lat="44.43324" lon="4.1605">
        <ele>268.558</ele>
        <time>2012-06-02T12:01:27Z</time>
      </trkpt>
      <trkpt lat="44.43281" lon="4.16066">
        <ele>266.118</ele>
        <time>2012-06-02T12:01:35Z</time>
      </trkpt>
      <trkpt lat="44.4324" lon="4.16077">
        <ele>264.489</ele>
        <time>2012-06-02T12:01:42Z</time>
      </trkpt>
      <trkpt lat="44.43201" lon="4.16089">
        <ele>264.089</ele>
        <time>2012-06-02T12:01:49Z</time>
      </trkpt>
      <trkpt lat="44.43162" lon="4.16098">
        <ele>263.159</ele>
        <time>2012-06-02T12:01:56Z</time>
      </trkpt>
      <trkpt lat="44.43116" lon="4.16105">
        <ele>262.609</ele>
        <time>2012-06-02T12:02:04Z</time>
      </trkpt>
      <trkpt lat="44.43072" lon="4.16101">
        <ele>262.819</ele>
        <time>2012-06-02T12:02:12Z</time>
      </trkpt>
      <trkpt lat="44.43026" lon="4.16091">
        <ele>264.12</ele>
        <time>2012-06-02T12:02:21Z</time>
      </trkpt>
      <trkpt lat="44.43021" lon="4.1609">
        <ele>264.4</ele>
        <time>2012-06-02T12:02:22Z</time>
      </trkpt>
      <trkpt lat="44.42986" lon="4.16094">
        <ele>265.76</ele>
        <time>2012-06-02T12:02:29Z</time>
      </trkpt>
      <trkpt lat="44.42947" lon="4.16108">
        <ele>265.599</ele>
        <time>2012-06-02T12:02:37Z</time>
      </trkpt>
      <trkpt lat="44.42916" lon="4.16119">
        <ele>266.189</ele>
        <time>2012-06-02T12:02:43Z</time>
      </trkpt>
      <trkpt lat="44.42889" lon="4.16131">
        <ele>267.531</ele>
        <time>2012-06-02T12:02:49Z</time>
      </trkpt>
      <trkpt lat="44.42864" lon="4.16139">
        <ele>268.21</ele>
        <time>2012-06-02T12:02:54Z</time>
      </trkpt>
      <trkpt lat="44.42825" lon="4.16148">
        <ele>268.879</ele>
        <time>2012-06-02T12:03:02Z</time>
      </trkpt>
      <trkpt lat="44.42789" lon="4.16148">
        <ele>269.339</ele>
        <time>2012-06-02T12:03:10Z</time>
      </trkpt>
      <trkpt lat="44.42759" lon="4.16147">
        <ele>268.967</ele>
        <time>2012-06-02T12:03:18Z</time>
      </trkpt>
      <trkpt lat="44.42721" lon="4.16145">
        <ele>268.357</ele>
        <time>2012-06-02T12:03:26Z</time>
      </trkpt>
      <trkpt lat="44.42676" lon="4.1614">
        <ele>267.116</ele>
        <time>2012-06-02T12:03:35Z</time>
      </trkpt>
      <trkpt lat="44.42629" lon="4.16134">
        <ele>265.617</ele>
        <time>2012-06-02T12:03:44Z</time>
      </trkpt>
      <trkpt lat="44.42593" lon="4.16136">
        <ele>264.607</ele>
        <time>2012-06-02T12:03:51Z</time>
      </trkpt>
      <trkpt lat="44.42558" lon="4.16135">
        <ele>263.516</ele>
        <time>2012-06-02T12:03:58Z</time>
      </trkpt>
      <trkpt lat="44.4253" lon="4.16127">
        <ele>260.883</ele>
        <time>2012-06-02T12:04:03Z</time>
      </trkpt>
      <trkpt lat="44.4249" lon="4.16121">
        <ele>260.046</ele>
        <time>2012-06-02T12:04:09Z</time>
      </trkpt>
      <trkpt lat="44.42454" lon="4.1612">
        <ele>259.967</ele>
        <time>2012-06-02T12:04:15Z</time>
      </trkpt>
      <trkpt lat="44.42417" lon="4.1612">
        <ele>259.877</ele>
        <time>2012-06-02T12:04:22Z</time>
      </trkpt>
      <trkpt lat="44.42374" lon="4.16128">
        <ele>258.355</ele>
        <time>2012-06-02T12:04:30Z</time>
      </trkpt>
      <trkpt lat="44.42335" lon="4.16136">
        <ele>256.235</ele>
        <time>2012-06-02T12:04:37Z</time>
      </trkpt>
      <trkpt lat="44.42307" lon="4.16128">
        <ele>253.132</ele>
        <time>2012-06-02T12:04:42Z</time>
      </trkpt>
      <trkpt lat="44.42286" lon="4.16129">
        <ele>251.093</ele>
        <time>2012-06-02T12:04:47Z</time>
      </trkpt>
      <trkpt lat="44.42283" lon="4.16146">
        <ele>250.574</ele>
        <time>2012-06-02T12:04:50Z</time>
      </trkpt>
      <trkpt lat="44.4228" lon="4.16202">
        <ele>250.436</ele>
        <time>2012-06-02T12:04:58Z</time>
      </trkpt>
      <trkpt lat="44.42273" lon="4.16258">
        <ele>250.306</ele>
        <time>2012-06-02T12:05:06Z</time>
      </trkpt>
      <trkpt lat="44.42268" lon="4.16278">
        <ele>250.867</ele>
        <time>2012-06-02T12:05:09Z</time>
      </trkpt>
      <trkpt lat="44.4227" lon="4.16309">
        <ele>251.717</ele>
        <time>2012-06-02T12:05:14Z</time>
      </trkpt>
      <trkpt lat="44.42281" lon="4.16321">
        <ele>252.748</ele>
        <time>2012-06-02T12:05:18Z</time>
      </trkpt>
      <trkpt lat="44.42293" lon="4.16326">
        <ele>253.588</ele>
        <time>2012-06-02T12:05:22Z</time>
      </trkpt>
      <trkpt lat="44.42296" lon="4.16344">
        <ele>253.837</ele>
        <time>2012-06-02T12:05:27Z</time>
      </trkpt>
      <trkpt lat="44.42292" lon="4.16356">
        <ele>254.017</ele>
        <time>2012-06-02T12:05:30Z</time>
      </trkpt>
      <trkpt lat="44.42288" lon="4.16361">
        <ele>254.317</ele>
        <time>2012-06-02T12:05:32Z</time>
      </trkpt>
      <trkpt lat="44.42289" lon="4.16374">
        <ele>253.878</ele>
        <time>2012-06-02T12:05:37Z</time>
      </trkpt>
      <trkpt lat="44.42298" lon="4.16388">
        <ele>255.949</ele>
        <time>2012-06-02T12:05:45Z</time>
      </trkpt>
      <trkpt lat="44.4231" lon="4.16397">
        <ele>259.069</ele>
        <time>2012-06-02T12:05:52Z</time>
      </trkpt>
      <trkpt lat="44.42321" lon="4.16404">
        <ele>262.437</ele>
        <time>2012-06-02T12:05:58Z</time>
      </trkpt>
      <trkpt lat="44.42334" lon="4.16414">
        <ele>262.435</ele>
        <time>2012-06-02T12:06:05Z</time>
      </trkpt>
      <trkpt lat="44.42342" lon="4.16432">
        <ele>262.976</ele>
        <time>2012-06-02T12:06:12Z</time>
      </trkpt>
      <trkpt lat="44.42351" lon="4.16456">
        <ele>262.176</ele>
        <time>2012-06-02T12:06:20Z</time>
      </trkpt>
      <trkpt lat="44.42363" lon="4.16485">
        <ele>262.457</ele>
        <time>2012-06-02T12:06:30Z</time>
      </trkpt>
      <trkpt lat="44.42371" lon="4.16507">
        <ele>262.387</ele>
        <time>2012-06-02T12:06:38Z</time>
      </trkpt>
      <trkpt lat="44.42387" lon="4.16523">
        <ele>262.937</ele>
        <time>2012-06-02T12:06:47Z</time>
      </trkpt>
      <trkpt lat="44.42401" lon="4.16534">
        <ele>264.557</ele>
        <time>2012-06-02T12:06:54Z</time>
      </trkpt>
      <trkpt lat="44.42415" lon="4.16553">
        <ele>265.707</ele>
        <time>2012-06-02T12:07:02Z</time>
      </trkpt>
      <trkpt lat="44.42426" lon="4.16575">
        <ele>266.747</ele>
        <time>2012-06-02T12:07:10Z</time>
      </trkpt>
      <trkpt lat="44.42436" lon="4.16603">
        <ele>268.849</ele>
        <time>2012-06-02T12:07:20Z</time>
      </trkpt>
      <trkpt lat="44.42438" lon="4.1663">
        <ele>267.537</ele>
        <time>2012-06-02T12:07:27Z</time>
      </trkpt>
      <trkpt lat="44.42442" lon="4.16657">
        <ele>267.848</ele>
        <time>2012-06-02T12:07:34Z</time>
      </trkpt>
      <trkpt lat="44.42451" lon="4.16663">
        <ele>268.688</ele>
        <time>2012-06-02T12:07:38Z</time>
      </trkpt>
      <trkpt lat="44.42469" lon="4.16659">
        <ele>270.229</ele>
        <time>2012-06-02T12:07:45Z</time>
      </trkpt>
      <trkpt lat="44.4249" lon="4.16657">
        <ele>271.588</ele>
        <time>2012-06-02T12:07:53Z</time>
      </trkpt>
      <trkpt lat="44.4251" lon="4.16664">
        <ele>273.038</ele>
        <time>2012-06-02T12:08:01Z</time>
      </trkpt>
      <trkpt lat="44.42529" lon="4.16681">
        <ele>274.978</ele>
        <time>2012-06-02T12:08:10Z</time>
      </trkpt>
      <trkpt lat="44.42542" lon="4.16699">
        <ele>277.109</ele>
        <time>2012-06-02T12:08:18Z</time>
      </trkpt>
      <trkpt lat="44.42547" lon="4.1672">
        <ele>279.209</ele>
        <time>2012-06-02T12:08:27Z</time>
      </trkpt>
      <trkpt lat="44.42554" lon="4.16736">
        <ele>279.698</ele>
        <time>2012-06-02T12:08:34Z</time>
      </trkpt>
      <trkpt lat="44.42562" lon="4.16762">
        <ele>279.738</ele>
        <time>2012-06-02T12:08:44Z</time>
      </trkpt>
      <trkpt lat="44.42559" lon="4.16772">
        <ele>280.3</ele>
        <time>2012-06-02T12:08:48Z</time>
      </trkpt>
      <trkpt lat="44.42551" lon="4.16767">
        <ele>280.8</ele>
        <time>2012-06-02T12:08:54Z</time>
      </trkpt>
      <trkpt lat="44.42551" lon="4.16765">
        <ele>280.939</ele>
        <time>2012-06-02T12:08:55Z</time>
      </trkpt>
      <trkpt lat="44.42549" lon="4.16761">
        <ele>281.451</ele>
        <time>2012-06-02T12:09:00Z</time>
      </trkpt>
      <trkpt lat="44.42551" lon="4.16762">
        <ele>281.318</ele>
        <time>2012-06-02T12:09:14Z</time>
      </trkpt>
      <trkpt lat="44.42552" lon="4.16764">
        <ele>281.043</ele>
        <time>2012-06-02T12:09:18Z</time>
      </trkpt>
      <trkpt lat="44.42559" lon="4.16771">
        <ele>279.185</ele>
        <time>2012-06-02T12:09:25Z</time>
      </trkpt>
      <trkpt lat="44.42563" lon="4.16758">
        <ele>277.396</ele>
        <time>2012-06-02T12:09:30Z</time>
      </trkpt>
      <trkpt lat="44.42561" lon="4.16757">
        <ele>277.327</ele>
        <time>2012-06-02T12:09:34Z</time>
      </trkpt>
      <trkpt lat="44.42558" lon="4.16749">
        <ele>276.868</ele>
        <time>2012-06-02T12:09:49Z</time>
      </trkpt>
      <trkpt lat="44.42552" lon="4.1673">
        <ele>275.967</ele>
        <time>2012-06-02T12:09:56Z</time>
      </trkpt>
      <trkpt lat="44.42544" lon="4.1671">
        <ele>274.686</ele>
        <time>2012-06-02T12:10:02Z</time>
      </trkpt>
      <trkpt lat="44.42547" lon="4.16706">
        <ele>274.037</ele>
        <time>2012-06-02T12:10:06Z</time>
      </trkpt>
      <trkpt lat="44.42548" lon="4.16708">
        <ele>274.137</ele>
        <time>2012-06-02T12:10:07Z</time>
      </trkpt>
      <trkpt lat="44.42563" lon="4.16733">
        <ele>274.147</ele>
        <time>2012-06-02T12:10:14Z</time>
      </trkpt>
      <trkpt lat="44.42568" lon="4.16747">
        <ele>273.646</ele>
        <time>2012-06-02T12:10:17Z</time>
      </trkpt>
      <trkpt lat="44.42575" lon="4.16763">
        <ele>272.965</ele>
        <time>2012-06-02T12:10:20Z</time>
      </trkpt>
      <trkpt lat="44.42585" lon="4.1679">
        <ele>271.965</ele>
        <time>2012-06-02T12:10:25Z</time>
      </trkpt>
      <trkpt lat="44.42587" lon="4.16799">
        <ele>271.435</ele>
        <time>2012-06-02T12:10:29Z</time>
      </trkpt>
      <trkpt lat="44.42587" lon="4.16799">
        <ele>271.457</ele>
        <time>2012-06-02T12:10:30Z</time>
      </trkpt>
      <trkpt lat="44.42582" lon="4.16783">
        <ele>272.999</ele>
        <time>2012-06-02T12:10:43Z</time>
      </trkpt>
      <trkpt lat="44.42578" lon="4.16771">
        <ele>274.489</ele>
        <time>2012-06-02T12:10:52Z</time>
      </trkpt>
      <trkpt lat="44.42574" lon="4.16764">
        <ele>275.309</ele>
        <time>2012-06-02T12:10:57Z</time>
      </trkpt>
      <trkpt lat="44.42572" lon="4.16766">
        <ele>276.069</ele>
        <time>2012-06-02T12:11:02Z</time>
      </trkpt>
      <trkpt lat="44.42573" lon="4.16775">
        <ele>277.648</ele>
        <time>2012-06-02T12:11:10Z</time>
      </trkpt>
      <trkpt lat="44.42577" lon="4.16784">
        <ele>275.587</ele>
        <time>2012-06-02T12:11:19Z</time>
      </trkpt>
      <trkpt lat="44.42579" lon="4.16789">
        <ele>274.858</ele>
        <time>2012-06-02T12:11:26Z</time>
      </trkpt>
      <trkpt lat="44.4258" lon="4.16794">
        <ele>274.098</ele>
        <time>2012-06-02T12:11:37Z</time>
      </trkpt>
      <trkpt lat="44.42575" lon="4.16815">
        <ele>275.369</ele>
        <time>2012-06-02T12:11:45Z</time>
      </trkpt>
      <trkpt lat="44.42574" lon="4.16828">
        <ele>276.249</ele>
        <time>2012-06-02T12:11:49Z</time>
      </trkpt>
      <trkpt lat="44.42576" lon="4.16839">
        <ele>277.019</ele>
        <time>2012-06-02T12:11:53Z</time>
      </trkpt>
      <trkpt lat="44.42574" lon="4.16851">
        <ele>277.959</ele>
        <time>2012-06-02T12:11:58Z</time>
      </trkpt>
      <trkpt lat="44.4257" lon="4.1686">
        <ele>278.989</ele>
        <time>2012-06-02T12:12:02Z</time>
      </trkpt>
      <trkpt lat="44.42564" lon="4.16884">
        <ele>281.82</ele>
        <time>2012-06-02T12:12:10Z</time>
      </trkpt>
      <trkpt lat="44.42558" lon="4.16897">
        <ele>283.21</ele>
        <time>2012-06-02T12:12:15Z</time>
      </trkpt>
      <trkpt lat="44.42554" lon="4.16912">
        <ele>282.808</ele>
        <time>2012-06-02T12:12:21Z</time>
      </trkpt>
      <trkpt lat="44.42547" lon="4.16929">
        <ele>282.197</ele>
        <time>2012-06-02T12:12:26Z</time>
      </trkpt>
      <trkpt lat="44.4255" lon="4.16943">
        <ele>280.248</ele>
        <time>2012-06-02T12:12:31Z</time>
      </trkpt>
      <trkpt lat="44.42545" lon="4.16958">
        <ele>280.348</ele>
        <time>2012-06-02T12:12:36Z</time>
      </trkpt>
      <trkpt lat="44.42538" lon="4.16971">
        <ele>280.848</ele>
        <time>2012-06-02T12:12:41Z</time>
      </trkpt>
      <trkpt lat="44.42533" lon="4.16982">
        <ele>281.449</ele>
        <time>2012-06-02T12:12:45Z</time>
      </trkpt>
      <trkpt lat="44.42525" lon="4.16996">
        <ele>282.369</ele>
        <time>2012-06-02T12:12:50Z</time>
      </trkpt>
      <trkpt lat="44.42519" lon="4.17015">
        <ele>282.257</ele>
        <time>2012-06-02T12:12:55Z</time>
      </trkpt>
      <trkpt lat="44.42508" lon="4.1704">
        <ele>281.407</ele>
        <time>2012-06-02T12:13:01Z</time>
      </trkpt>
      <trkpt lat="44.425" lon="4.17057">
        <ele>280.617</ele>
        <time>2012-06-02T12:13:07Z</time>
      </trkpt>
      <trkpt lat="44.42493" lon="4.17069">
        <ele>280.147</ele>
        <time>2012-06-02T12:13:13Z</time>
      </trkpt>
      <trkpt lat="44.42489" lon="4.17072">
        <ele>279.558</ele>
        <time>2012-06-02T12:13:17Z</time>
      </trkpt>
      <trkpt lat="44.42479" lon="4.17078">
        <ele>278.59</ele>
        <time>2012-06-02T12:13:23Z</time>
      </trkpt>
      <trkpt lat="44.4247" lon="4.17089">
        <ele>278.658</ele>
        <time>2012-06-02T12:13:29Z</time>
      </trkpt>
      <trkpt lat="44.42465" lon="4.17111">
        <ele>276.805</ele>
        <time>2012-06-02T12:13:34Z</time>
      </trkpt>
      <trkpt lat="44.42462" lon="4.17117">
        <ele>275.905</ele>
        <time>2012-06-02T12:13:36Z</time>
      </trkpt>
      <trkpt lat="44.42467" lon="4.1713">
        <ele>271.161</ele>
        <time>2012-06-02T12:13:42Z</time>
      </trkpt>
      <trkpt lat="44.42478" lon="4.17152">
        <ele>266.461</ele>
        <time>2012-06-02T12:13:48Z</time>
      </trkpt>
      <trkpt lat="44.4249" lon="4.17175">
        <ele>262.713</ele>
        <time>2012-06-02T12:13:54Z</time>
      </trkpt>
      <trkpt lat="44.42503" lon="4.17198">
        <ele>260.013</ele>
        <time>2012-06-02T12:13:59Z</time>
      </trkpt>
      <trkpt lat="44.4251" lon="4.17212">
        <ele>257.753</ele>
        <time>2012-06-02T12:14:03Z</time>
      </trkpt>
      <trkpt lat="44.42518" lon="4.17223">
        <ele>254.883</ele>
        <time>2012-06-02T12:14:08Z</time>
      </trkpt>
      <trkpt lat="44.42523" lon="4.17232">
        <ele>251.923</ele>
        <time>2012-06-02T12:14:13Z</time>
      </trkpt>
      <trkpt lat="44.42523" lon="4.17234">
        <ele>251.493</ele>
        <time>2012-06-02T12:14:14Z</time>
      </trkpt>
      <trkpt lat="44.42531" lon="4.17244">
        <ele>248.863</ele>
        <time>2012-06-02T12:14:18Z</time>
      </trkpt>
      <trkpt lat="44.42543" lon="4.17262">
        <ele>246.035</ele>
        <time>2012-06-02T12:14:24Z</time>
      </trkpt>
      <trkpt lat="44.42539" lon="4.17277">
        <ele>244.476</ele>
        <time>2012-06-02T12:14:29Z</time>
      </trkpt>
      <trkpt lat="44.42535" lon="4.17292">
        <ele>243.145</ele>
        <time>2012-06-02T12:14:32Z</time>
      </trkpt>
      <trkpt lat="44.42533" lon="4.17304">
        <ele>242.585</ele>
        <time>2012-06-02T12:14:34Z</time>
      </trkpt>
      <trkpt lat="44.42517" lon="4.17332">
        <ele>238.954</ele>
        <time>2012-06-02T12:14:39Z</time>
      </trkpt>
      <trkpt lat="44.42511" lon="4.17336">
        <ele>238.665</ele>
        <time>2012-06-02T12:14:40Z</time>
      </trkpt>
      <trkpt lat="44.42486" lon="4.17347">
        <ele>238.579</ele>
        <time>2012-06-02T12:14:46Z</time>
      </trkpt>
      <trkpt lat="44.42465" lon="4.17357">
        <ele>237.73</ele>
        <time>2012-06-02T12:14:53Z</time>
      </trkpt>
      <trkpt lat="44.42439" lon="4.17369">
        <ele>237.978</ele>
        <time>2012-06-02T12:15:01Z</time>
      </trkpt>
      <trkpt lat="44.42409" lon="4.17378">
        <ele>237.007</ele>
        <time>2012-06-02T12:15:07Z</time>
      </trkpt>
      <trkpt lat="44.42372" lon="4.1739">
        <ele>238.25</ele>
        <time>2012-06-02T12:15:14Z</time>
      </trkpt>
      <trkpt lat="44.42351" lon="4.17399">
        <ele>238.648</ele>
        <time>2012-06-02T12:15:20Z</time>
      </trkpt>
      <trkpt lat="44.42329" lon="4.17406">
        <ele>239.059</ele>
        <time>2012-06-02T12:15:26Z</time>
      </trkpt>
      <trkpt lat="44.42305" lon="4.17407">
        <ele>239.268</ele>
        <time>2012-06-02T12:15:32Z</time>
      </trkpt>
      <trkpt lat="44.42291" lon="4.17407">
        <ele>238.557</ele>
        <time>2012-06-02T12:15:35Z</time>
      </trkpt>
      <trkpt lat="44.42281" lon="4.17409">
        <ele>237.846</ele>
        <time>2012-06-02T12:15:37Z</time>
      </trkpt>
      <trkpt lat="44.42243" lon="4.17405">
        <ele>233.454</ele>
        <time>2012-06-02T12:15:43Z</time>
      </trkpt>
      <trkpt lat="44.42219" lon="4.17405">
        <ele>232.414</ele>
        <time>2012-06-02T12:15:47Z</time>
      </trkpt>
      <trkpt lat="44.42198" lon="4.17418">
        <ele>228.742</ele>
        <time>2012-06-02T12:15:52Z</time>
      </trkpt>
      <trkpt lat="44.42193" lon="4.17423">
        <ele>227.204</ele>
        <time>2012-06-02T12:15:55Z</time>
      </trkpt>
      <trkpt lat="44.42183" lon="4.17416">
        <ele>225.597</ele>
        <time>2012-06-02T12:16:00Z</time>
      </trkpt>
      <trkpt lat="44.42171" lon="4.17406">
        <ele>224.938</ele>
        <time>2012-06-02T12:16:04Z</time>
      </trkpt>
      <trkpt lat="44.42161" lon="4.17396">
        <ele>224.028</ele>
        <time>2012-06-02T12:16:07Z</time>
      </trkpt>
      <trkpt lat="44.42137" lon="4.1738">
        <ele>222.466</ele>
        <time>2012-06-02T12:16:13Z</time>
      </trkpt>
      <trkpt lat="44.42122" lon="4.17366">
        <ele>221.488</ele>
        <time>2012-06-02T12:16:18Z</time>
      </trkpt>
      <trkpt lat="44.4212" lon="4.17364">
        <ele>221.298</ele>
        <time>2012-06-02T12:16:19Z</time>
      </trkpt>
      <trkpt lat="44.42116" lon="4.17362">
        <ele>222.277</ele>
        <time>2012-06-02T12:16:23Z</time>
      </trkpt>
      <trkpt lat="44.42118" lon="4.17368">
        <ele>224.007</ele>
        <time>2012-06-02T12:17:03Z</time>
      </trkpt>
      <trkpt lat="44.4212" lon="4.17372">
        <ele>224.096</ele>
        <time>2012-06-02T12:17:08Z</time>
      </trkpt>
      <trkpt lat="44.42124" lon="4.17376">
        <ele>240.818</ele>
        <time>2012-06-02T12:19:47Z</time>
      </trkpt>
      <trkpt lat="44.42125" lon="4.17376">
        <ele>240.383</ele>
        <time>2012-06-02T12:19:48Z</time>
      </trkpt>
      <trkpt lat="44.42141" lon="4.17386">
        <ele>234.606</ele>
        <time>2012-06-02T12:19:58Z</time>
      </trkpt>
      <trkpt lat="44.42154" lon="4.17393">
        <ele>231.846</ele>
        <time>2012-06-02T12:20:03Z</time>
      </trkpt>
      <trkpt lat="44.42165" lon="4.17399">
        <ele>230.947</ele>
        <time>2012-06-02T12:20:08Z</time>
      </trkpt>
      <trkpt lat="44.42178" lon="4.17413">
        <ele>230.487</ele>
        <time>2012-06-02T12:20:15Z</time>
      </trkpt>
      <trkpt lat="44.42193" lon="4.17427">
        <ele>230.628</ele>
        <time>2012-06-02T12:20:22Z</time>
      </trkpt>
      <trkpt lat="44.42207" lon="4.17439">
        <ele>230.517</ele>
        <time>2012-06-02T12:20:28Z</time>
      </trkpt>
      <trkpt lat="44.42224" lon="4.17453">
        <ele>229.437</ele>
        <time>2012-06-02T12:20:35Z</time>
      </trkpt>
      <trkpt lat="44.42251" lon="4.17468">
        <ele>228.247</ele>
        <time>2012-06-02T12:20:43Z</time>
      </trkpt>
      <trkpt lat="44.42281" lon="4.17478">
        <ele>226.886</ele>
        <time>2012-06-02T12:20:50Z</time>
      </trkpt>
      <trkpt lat="44.42325" lon="4.17493">
        <ele>225.966</ele>
        <time>2012-06-02T12:20:58Z</time>
      </trkpt>
      <trkpt lat="44.42355" lon="4.17518">
        <ele>223.814</ele>
        <time>2012-06-02T12:21:04Z</time>
      </trkpt>
      <trkpt lat="44.42367" lon="4.17529">
        <ele>223.205</ele>
        <time>2012-06-02T12:21:08Z</time>
      </trkpt>
      <trkpt lat="44.42377" lon="4.17541">
        <ele>219.914</ele>
        <time>2012-06-02T12:21:15Z</time>
      </trkpt>
      <trkpt lat="44.42391" lon="4.17554">
        <ele>217.062</ele>
        <time>2012-06-02T12:21:20Z</time>
      </trkpt>
      <trkpt lat="44.42396" lon="4.17562">
        <ele>215.712</ele>
        <time>2012-06-02T12:21:22Z</time>
      </trkpt>
      <trkpt lat="44.42408" lon="4.17601">
        <ele>208.962</ele>
        <time>2012-06-02T12:21:30Z</time>
      </trkpt>
      <trkpt lat="44.42405" lon="4.1763">
        <ele>202.249</ele>
        <time>2012-06-02T12:21:35Z</time>
      </trkpt>
      <trkpt lat="44.42402" lon="4.1766">
        <ele>197.171</ele>
        <time>2012-06-02T12:21:40Z</time>
      </trkpt>
      <trkpt lat="44.42401" lon="4.1767">
        <ele>195.44</ele>
        <time>2012-06-02T12:21:42Z</time>
      </trkpt>
      <trkpt lat="44.42398" lon="4.17695">
        <ele>190.911</ele>
        <time>2012-06-02T12:21:46Z</time>
      </trkpt>
      <trkpt lat="44.4239" lon="4.17717">
        <ele>186.709</ele>
        <time>2012-06-02T12:21:50Z</time>
      </trkpt>
      <trkpt lat="44.42382" lon="4.17735">
        <ele>183.74</ele>
        <time>2012-06-02T12:21:54Z</time>
      </trkpt>
      <trkpt lat="44.42363" lon="4.1776">
        <ele>181.142</ele>
        <time>2012-06-02T12:21:59Z</time>
      </trkpt>
      <trkpt lat="44.42328" lon="4.17791">
        <ele>176.703</ele>
        <time>2012-06-02T12:22:05Z</time>
      </trkpt>
      <trkpt lat="44.42295" lon="4.17804">
        <ele>174.605</ele>
        <time>2012-06-02T12:22:10Z</time>
      </trkpt>
      <trkpt lat="44.42275" lon="4.17805">
        <ele>173.535</ele>
        <time>2012-06-02T12:22:13Z</time>
      </trkpt>
      <trkpt lat="44.42246" lon="4.17797">
        <ele>171.685</ele>
        <time>2012-06-02T12:22:17Z</time>
      </trkpt>
      <trkpt lat="44.42222" lon="4.17781">
        <ele>169.595</ele>
        <time>2012-06-02T12:22:21Z</time>
      </trkpt>
      <trkpt lat="44.42205" lon="4.17782">
        <ele>168.696</ele>
        <time>2012-06-02T12:22:25Z</time>
      </trkpt>
      <trkpt lat="44.42203" lon="4.17787">
        <ele>168.678</ele>
        <time>2012-06-02T12:22:28Z</time>
      </trkpt>
      <trkpt lat="44.42203" lon="4.1779">
        <ele>168.798</ele>
        <time>2012-06-02T12:22:30Z</time>
      </trkpt>
      <trkpt lat="44.42211" lon="4.178">
        <ele>168.978</ele>
        <time>2012-06-02T12:22:34Z</time>
      </trkpt>
      <trkpt lat="44.42242" lon="4.17818">
        <ele>168.798</ele>
        <time>2012-06-02T12:22:42Z</time>
      </trkpt>
      <trkpt lat="44.42249" lon="4.17822">
        <ele>168.628</ele>
        <time>2012-06-02T12:22:44Z</time>
      </trkpt>
      <trkpt lat="44.42251" lon="4.17831">
        <ele>167.435</ele>
        <time>2012-06-02T12:22:48Z</time>
      </trkpt>
      <trkpt lat="44.42242" lon="4.17852">
        <ele>163.543</ele>
        <time>2012-06-02T12:22:54Z</time>
      </trkpt>
      <trkpt lat="44.42234" lon="4.17871">
        <ele>159.511</ele>
        <time>2012-06-02T12:22:59Z</time>
      </trkpt>
      <trkpt lat="44.42221" lon="4.17892">
        <ele>153.34</ele>
        <time>2012-06-02T12:23:05Z</time>
      </trkpt>
      <trkpt lat="44.4222" lon="4.17894">
        <ele>152.601</ele>
        <time>2012-06-02T12:23:06Z</time>
      </trkpt>
      <trkpt lat="44.42224" lon="4.17908">
        <ele>150.645</ele>
        <time>2012-06-02T12:23:12Z</time>
      </trkpt>
      <trkpt lat="44.42224" lon="4.17909">
        <ele>150.384</ele>
        <time>2012-06-02T12:23:14Z</time>
      </trkpt>
      <trkpt lat="44.42226" lon="4.17913">
        <ele>149.076</ele>
        <time>2012-06-02T12:23:25Z</time>
      </trkpt>
      <trkpt lat="44.42233" lon="4.17921">
        <ele>148.288</ele>
        <time>2012-06-02T12:23:31Z</time>
      </trkpt>
      <trkpt lat="44.42233" lon="4.17921">
        <ele>148.163</ele>
        <time>2012-06-02T12:23:32Z</time>
      </trkpt>
      <trkpt lat="44.42235" lon="4.17923">
        <ele>148.519</ele>
        <time>2012-06-02T12:23:35Z</time>
      </trkpt>
      <trkpt lat="44.42239" lon="4.17927">
        <ele>148.796</ele>
        <time>2012-06-02T12:23:40Z</time>
      </trkpt>
      <trkpt lat="44.4225" lon="4.17952">
        <ele>150.609</ele>
        <time>2012-06-02T12:23:54Z</time>
      </trkpt>
      <trkpt lat="44.42262" lon="4.17969">
        <ele>152.04</ele>
        <time>2012-06-02T12:24:01Z</time>
      </trkpt>
      <trkpt lat="44.42276" lon="4.17984">
        <ele>153.389</ele>
        <time>2012-06-02T12:24:09Z</time>
      </trkpt>
      <trkpt lat="44.42288" lon="4.1801">
        <ele>153.898</ele>
        <time>2012-06-02T12:24:17Z</time>
      </trkpt>
      <trkpt lat="44.42305" lon="4.18046">
        <ele>154.849</ele>
        <time>2012-06-02T12:24:28Z</time>
      </trkpt>
      <trkpt lat="44.42318" lon="4.18075">
        <ele>155.839</ele>
        <time>2012-06-02T12:24:37Z</time>
      </trkpt>
      <trkpt lat="44.42332" lon="4.18103">
        <ele>156.892</ele>
        <time>2012-06-02T12:24:46Z</time>
      </trkpt>
      <trkpt lat="44.42343" lon="4.18128">
        <ele>157.32</ele>
        <time>2012-06-02T12:24:54Z</time>
      </trkpt>
      <trkpt lat="44.42354" lon="4.18153">
        <ele>157.929</ele>
        <time>2012-06-02T12:25:02Z</time>
      </trkpt>
      <trkpt lat="44.42362" lon="4.18174">
        <ele>157.628</ele>
        <time>2012-06-02T12:25:09Z</time>
      </trkpt>
      <trkpt lat="44.42368" lon="4.18188">
        <ele>156.415</ele>
        <time>2012-06-02T12:25:12Z</time>
      </trkpt>
      <trkpt lat="44.42393" lon="4.1822">
        <ele>155.878</ele>
        <time>2012-06-02T12:25:18Z</time>
      </trkpt>
      <trkpt lat="44.42415" lon="4.18233">
        <ele>156.459</ele>
        <time>2012-06-02T12:25:23Z</time>
      </trkpt>
      <trkpt lat="44.42431" lon="4.1825">
        <ele>157.871</ele>
        <time>2012-06-02T12:25:28Z</time>
      </trkpt>
      <trkpt lat="44.4245" lon="4.18268">
        <ele>160.242</ele>
        <time>2012-06-02T12:25:34Z</time>
      </trkpt>
      <trkpt lat="44.42477" lon="4.18285">
        <ele>163.031</ele>
        <time>2012-06-02T12:25:43Z</time>
      </trkpt>
      <trkpt lat="44.42494" lon="4.18287">
        <ele>163.522</ele>
        <time>2012-06-02T12:25:49Z</time>
      </trkpt>
      <trkpt lat="44.42509" lon="4.18294">
        <ele>164.382</ele>
        <time>2012-06-02T12:25:55Z</time>
      </trkpt>
      <trkpt lat="44.42533" lon="4.18309">
        <ele>165.691</ele>
        <time>2012-06-02T12:26:04Z</time>
      </trkpt>
      <trkpt lat="44.42557" lon="4.18337">
        <ele>165.539</ele>
        <time>2012-06-02T12:26:13Z</time>
      </trkpt>
      <trkpt lat="44.42579" lon="4.18361">
        <ele>165.51</ele>
        <time>2012-06-02T12:26:20Z</time>
      </trkpt>
      <trkpt lat="44.42616" lon="4.18387">
        <ele>165.79</ele>
        <time>2012-06-02T12:26:30Z</time>
      </trkpt>
      <trkpt lat="44.42633" lon="4.18397">
        <ele>166</ele>
        <time>2012-06-02T12:26:35Z</time>
      </trkpt>
      <trkpt lat="44.42633" lon="4.18417">
        <ele>163.457</ele>
        <time>2012-06-02T12:26:40Z</time>
      </trkpt>
      <trkpt lat="44.42628" lon="4.18448">
        <ele>160.628</ele>
        <time>2012-06-02T12:26:45Z</time>
      </trkpt>
      <trkpt lat="44.42623" lon="4.18484">
        <ele>159.941</ele>
        <time>2012-06-02T12:26:51Z</time>
      </trkpt>
      <trkpt lat="44.4263" lon="4.18495">
        <ele>159.932</ele>
        <time>2012-06-02T12:26:55Z</time>
      </trkpt>
      <trkpt lat="44.4264" lon="4.18494">
        <ele>160.411</ele>
        <time>2012-06-02T12:26:58Z</time>
      </trkpt>
      <trkpt lat="44.42656" lon="4.18495">
        <ele>161.371</ele>
        <time>2012-06-02T12:27:03Z</time>
      </trkpt>
      <trkpt lat="44.42661" lon="4.18517">
        <ele>162.662</ele>
        <time>2012-06-02T12:27:08Z</time>
      </trkpt>
      <trkpt lat="44.4266" lon="4.18522">
        <ele>162.632</ele>
        <time>2012-06-02T12:27:09Z</time>
      </trkpt>
      <trkpt lat="44.42657" lon="4.18538">
        <ele>163.493</ele>
        <time>2012-06-02T12:27:13Z</time>
      </trkpt>
      <trkpt lat="44.42668" lon="4.18557">
        <ele>164.592</ele>
        <time>2012-06-02T12:27:19Z</time>
      </trkpt>
      <trkpt lat="44.42685" lon="4.1857">
        <ele>165.671</ele>
        <time>2012-06-02T12:27:26Z</time>
      </trkpt>
      <trkpt lat="44.42711" lon="4.18576">
        <ele>166.482</ele>
        <time>2012-06-02T12:27:35Z</time>
      </trkpt>
      <trkpt lat="44.42734" lon="4.18577">
        <ele>166.802</ele>
        <time>2012-06-02T12:27:43Z</time>
      </trkpt>
      <trkpt lat="44.42758" lon="4.18576">
        <ele>166.791</ele>
        <time>2012-06-02T12:27:51Z</time>
      </trkpt>
      <trkpt lat="44.42769" lon="4.18567">
        <ele>166.741</ele>
        <time>2012-06-02T12:27:55Z</time>
      </trkpt>
      <trkpt lat="44.42786" lon="4.18569">
        <ele>167.152</ele>
        <time>2012-06-02T12:28:00Z</time>
      </trkpt>
      <trkpt lat="44.42809" lon="4.18582">
        <ele>168.092</ele>
        <time>2012-06-02T12:28:08Z</time>
      </trkpt>
      <trkpt lat="44.42838" lon="4.186">
        <ele>169.042</ele>
        <time>2012-06-02T12:28:18Z</time>
      </trkpt>
      <trkpt lat="44.42854" lon="4.18621">
        <ele>170.302</ele>
        <time>2012-06-02T12:28:25Z</time>
      </trkpt>
      <trkpt lat="44.42861" lon="4.18646">
        <ele>169.811</ele>
        <time>2012-06-02T12:28:31Z</time>
      </trkpt>
      <trkpt lat="44.4287" lon="4.18666">
        <ele>168.278</ele>
        <time>2012-06-02T12:28:36Z</time>
      </trkpt>
      <trkpt lat="44.42877" lon="4.18671">
        <ele>167.107</ele>
        <time>2012-06-02T12:28:38Z</time>
      </trkpt>
      <trkpt lat="44.42888" lon="4.18657">
        <ele>164.406</ele>
        <time>2012-06-02T12:28:42Z</time>
      </trkpt>
      <trkpt lat="44.42895" lon="4.18639">
        <ele>162.085</ele>
        <time>2012-06-02T12:28:45Z</time>
      </trkpt>
      <trkpt lat="44.42905" lon="4.18609">
        <ele>160.789</ele>
        <time>2012-06-02T12:28:50Z</time>
      </trkpt>
      <trkpt lat="44.42916" lon="4.18607">
        <ele>161.312</ele>
        <time>2012-06-02T12:28:53Z</time>
      </trkpt>
      <trkpt lat="44.42942" lon="4.18615">
        <ele>161.582</ele>
        <time>2012-06-02T12:29:01Z</time>
      </trkpt>
      <trkpt lat="44.4296" lon="4.1862">
        <ele>162.163</ele>
        <time>2012-06-02T12:29:07Z</time>
      </trkpt>
      <trkpt lat="44.42981" lon="4.18634">
        <ele>163.052</ele>
        <time>2012-06-02T12:29:15Z</time>
      </trkpt>
      <trkpt lat="44.42999" lon="4.18647">
        <ele>164.344</ele>
        <time>2012-06-02T12:29:22Z</time>
      </trkpt>
      <trkpt lat="44.43017" lon="4.1866">
        <ele>167.386</ele>
        <time>2012-06-02T12:29:30Z</time>
      </trkpt>
      <trkpt lat="44.43032" lon="4.18673">
        <ele>167.503</ele>
        <time>2012-06-02T12:29:36Z</time>
      </trkpt>
      <trkpt lat="44.43044" lon="4.18685">
        <ele>170.245</ele>
        <time>2012-06-02T12:29:42Z</time>
      </trkpt>
      <trkpt lat="44.43063" lon="4.18706">
        <ele>169.002</ele>
        <time>2012-06-02T12:29:50Z</time>
      </trkpt>
      <trkpt lat="44.43084" lon="4.1873">
        <ele>169.702</ele>
        <time>2012-06-02T12:29:59Z</time>
      </trkpt>
      <trkpt lat="44.43099" lon="4.18752">
        <ele>170.524</ele>
        <time>2012-06-02T12:30:07Z</time>
      </trkpt>
      <trkpt lat="44.4311" lon="4.18764">
        <ele>172.364</ele>
        <time>2012-06-02T12:30:15Z</time>
      </trkpt>
      <trkpt lat="44.43112" lon="4.18774">
        <ele>172.443</ele>
        <time>2012-06-02T12:30:20Z</time>
      </trkpt>
      <trkpt lat="44.43124" lon="4.1879">
        <ele>172.632</ele>
        <time>2012-06-02T12:30:27Z</time>
      </trkpt>
      <trkpt lat="44.43137" lon="4.18808">
        <ele>173.033</ele>
        <time>2012-06-02T12:30:36Z</time>
      </trkpt>
      <trkpt lat="44.43149" lon="4.18819">
        <ele>173.423</ele>
        <time>2012-06-02T12:30:44Z</time>
      </trkpt>
      <trkpt lat="44.43156" lon="4.18829">
        <ele>173.913</ele>
        <time>2012-06-02T12:30:51Z</time>
      </trkpt>
      <trkpt lat="44.43156" lon="4.1883">
        <ele>173.763</ele>
        <time>2012-06-02T12:30:52Z</time>
      </trkpt>
      <trkpt lat="44.43148" lon="4.18844">
        <ele>175.374</ele>
        <time>2012-06-02T12:30:59Z</time>
      </trkpt>
      <trkpt lat="44.43147" lon="4.18846">
        <ele>175.404</ele>
        <time>2012-06-02T12:31:00Z</time>
      </trkpt>
      <trkpt lat="44.43142" lon="4.18855">
        <ele>177.354</ele>
        <time>2012-06-02T12:31:07Z</time>
      </trkpt>
      <trkpt lat="44.43148" lon="4.18843">
        <ele>178.02</ele>
        <time>2012-06-02T12:34:07Z</time>
      </trkpt>
      <trkpt lat="44.43154" lon="4.18831">
        <ele>176.6</ele>
        <time>2012-06-02T12:34:11Z</time>
      </trkpt>
      <trkpt lat="44.43164" lon="4.18835">
        <ele>174.342</ele>
        <time>2012-06-02T12:34:16Z</time>
      </trkpt>
      <trkpt lat="44.43177" lon="4.18845">
        <ele>175.524</ele>
        <time>2012-06-02T12:34:23Z</time>
      </trkpt>
      <trkpt lat="44.43193" lon="4.18858">
        <ele>177.444</ele>
        <time>2012-06-02T12:34:31Z</time>
      </trkpt>
      <trkpt lat="44.43213" lon="4.18878">
        <ele>179.774</ele>
        <time>2012-06-02T12:34:40Z</time>
      </trkpt>
      <trkpt lat="44.43226" lon="4.18885">
        <ele>186.948</ele>
        <time>2012-06-02T12:34:47Z</time>
      </trkpt>
      <trkpt lat="44.43241" lon="4.18899">
        <ele>183.764</ele>
        <time>2012-06-02T12:34:54Z</time>
      </trkpt>
      <trkpt lat="44.43261" lon="4.18917">
        <ele>183.194</ele>
        <time>2012-06-02T12:35:03Z</time>
      </trkpt>
      <trkpt lat="44.43278" lon="4.18932">
        <ele>184.124</ele>
        <time>2012-06-02T12:35:11Z</time>
      </trkpt>
      <trkpt lat="44.43297" lon="4.18949">
        <ele>185.304</ele>
        <time>2012-06-02T12:35:20Z</time>
      </trkpt>
      <trkpt lat="44.43318" lon="4.18971">
        <ele>186.114</ele>
        <time>2012-06-02T12:35:30Z</time>
      </trkpt>
      <trkpt lat="44.43332" lon="4.1899">
        <ele>186.265</ele>
        <time>2012-06-02T12:35:39Z</time>
      </trkpt>
      <trkpt lat="44.43345" lon="4.19008">
        <ele>188.446</ele>
        <time>2012-06-02T12:35:49Z</time>
      </trkpt>
      <trkpt lat="44.43354" lon="4.19018">
        <ele>189.775</ele>
        <time>2012-06-02T12:35:55Z</time>
      </trkpt>
      <trkpt lat="44.43364" lon="4.19033">
        <ele>191.258</ele>
        <time>2012-06-02T12:36:03Z</time>
      </trkpt>
      <trkpt lat="44.43377" lon="4.19049">
        <ele>191.644</ele>
        <time>2012-06-02T12:36:12Z</time>
      </trkpt>
      <trkpt lat="44.43389" lon="4.19064">
        <ele>192.485</ele>
        <time>2012-06-02T12:36:20Z</time>
      </trkpt>
      <trkpt lat="44.43404" lon="4.1908">
        <ele>193.535</ele>
        <time>2012-06-02T12:36:29Z</time>
      </trkpt>
      <trkpt lat="44.43414" lon="4.19088">
        <ele>193.716</ele>
        <time>2012-06-02T12:36:36Z</time>
      </trkpt>
      <trkpt lat="44.43424" lon="4.19093">
        <ele>194.295</ele>
        <time>2012-06-02T12:36:42Z</time>
      </trkpt>
      <trkpt lat="44.43434" lon="4.1909">
        <ele>194.976</ele>
        <time>2012-06-02T12:36:48Z</time>
      </trkpt>
      <trkpt lat="44.43446" lon="4.19076">
        <ele>195.505</ele>
        <time>2012-06-02T12:36:56Z</time>
      </trkpt>
      <trkpt lat="44.43461" lon="4.19064">
        <ele>196.205</ele>
        <time>2012-06-02T12:37:05Z</time>
      </trkpt>
      <trkpt lat="44.43474" lon="4.19056">
        <ele>196.605</ele>
        <time>2012-06-02T12:37:12Z</time>
      </trkpt>
      <trkpt lat="44.43489" lon="4.19048">
        <ele>197.155</ele>
        <time>2012-06-02T12:37:19Z</time>
      </trkpt>
      <trkpt lat="44.43506" lon="4.19038">
        <ele>198.576</ele>
        <time>2012-06-02T12:37:27Z</time>
      </trkpt>
      <trkpt lat="44.43523" lon="4.19032">
        <ele>200.186</ele>
        <time>2012-06-02T12:37:35Z</time>
      </trkpt>
      <trkpt lat="44.43546" lon="4.19026">
        <ele>202.526</ele>
        <time>2012-06-02T12:37:45Z</time>
      </trkpt>
      <trkpt lat="44.43571" lon="4.19024">
        <ele>204.025</ele>
        <time>2012-06-02T12:37:56Z</time>
      </trkpt>
      <trkpt lat="44.43594" lon="4.19027">
        <ele>205.065</ele>
        <time>2012-06-02T12:38:06Z</time>
      </trkpt>
      <trkpt lat="44.43615" lon="4.1903">
        <ele>206.216</ele>
        <time>2012-06-02T12:38:15Z</time>
      </trkpt>
      <trkpt lat="44.43636" lon="4.1903">
        <ele>207.886</ele>
        <time>2012-06-02T12:38:24Z</time>
      </trkpt>
      <trkpt lat="44.43663" lon="4.19028">
        <ele>209.516</ele>
        <time>2012-06-02T12:38:35Z</time>
      </trkpt>
      <trkpt lat="44.43686" lon="4.19021">
        <ele>211.987</ele>
        <time>2012-06-02T12:38:45Z</time>
      </trkpt>
      <trkpt lat="44.43699" lon="4.19005">
        <ele>214.008</ele>
        <time>2012-06-02T12:38:52Z</time>
      </trkpt>
      <trkpt lat="44.43717" lon="4.18976">
        <ele>215.987</ele>
        <time>2012-06-02T12:39:04Z</time>
      </trkpt>
      <trkpt lat="44.43729" lon="4.18955">
        <ele>217.217</ele>
        <time>2012-06-02T12:39:13Z</time>
      </trkpt>
      <trkpt lat="44.43738" lon="4.18936">
        <ele>218.226</ele>
        <time>2012-06-02T12:39:20Z</time>
      </trkpt>
      <trkpt lat="44.43745" lon="4.1892">
        <ele>218.766</ele>
        <time>2012-06-02T12:39:26Z</time>
      </trkpt>
      <trkpt lat="44.43756" lon="4.18898">
        <ele>220.907</ele>
        <time>2012-06-02T12:39:35Z</time>
      </trkpt>
      <trkpt lat="44.43769" lon="4.1887">
        <ele>221.445</ele>
        <time>2012-06-02T12:39:45Z</time>
      </trkpt>
      <trkpt lat="44.43784" lon="4.18845">
        <ele>225.606</ele>
        <time>2012-06-02T12:39:55Z</time>
      </trkpt>
      <trkpt lat="44.43794" lon="4.18829">
        <ele>226.745</ele>
        <time>2012-06-02T12:40:02Z</time>
      </trkpt>
      <trkpt lat="44.43806" lon="4.18814">
        <ele>228.386</ele>
        <time>2012-06-02T12:40:09Z</time>
      </trkpt>
      <trkpt lat="44.4382" lon="4.18799">
        <ele>228.835</ele>
        <time>2012-06-02T12:40:16Z</time>
      </trkpt>
      <trkpt lat="44.43833" lon="4.18787">
        <ele>229.076</ele>
        <time>2012-06-02T12:40:23Z</time>
      </trkpt>
      <trkpt lat="44.43847" lon="4.18778">
        <ele>229.126</ele>
        <time>2012-06-02T12:40:30Z</time>
      </trkpt>
      <trkpt lat="44.43862" lon="4.18768">
        <ele>230.146</ele>
        <time>2012-06-02T12:40:38Z</time>
      </trkpt>
      <trkpt lat="44.4388" lon="4.18757">
        <ele>230.535</ele>
        <time>2012-06-02T12:40:46Z</time>
      </trkpt>
      <trkpt lat="44.43899" lon="4.18751">
        <ele>230.835</ele>
        <time>2012-06-02T12:40:54Z</time>
      </trkpt>
      <trkpt lat="44.43914" lon="4.18746">
        <ele>231.896</ele>
        <time>2012-06-02T12:41:01Z</time>
      </trkpt>
      <trkpt lat="44.43935" lon="4.18743">
        <ele>232.716</ele>
        <time>2012-06-02T12:41:10Z</time>
      </trkpt>
      <trkpt lat="44.43961" lon="4.1874">
        <ele>234.347</ele>
        <time>2012-06-02T12:41:21Z</time>
      </trkpt>
      <trkpt lat="44.43987" lon="4.1874">
        <ele>236.147</ele>
        <time>2012-06-02T12:41:32Z</time>
      </trkpt>
      <trkpt lat="44.44006" lon="4.1874">
        <ele>238.148</ele>
        <time>2012-06-02T12:41:40Z</time>
      </trkpt>
      <trkpt lat="44.44017" lon="4.18739">
        <ele>239.178</ele>
        <time>2012-06-02T12:41:45Z</time>
      </trkpt>
      <trkpt lat="44.44026" lon="4.1874">
        <ele>240.087</ele>
        <time>2012-06-02T12:41:49Z</time>
      </trkpt>
      <trkpt lat="44.44045" lon="4.18743">
        <ele>241.557</ele>
        <time>2012-06-02T12:41:57Z</time>
      </trkpt>
      <trkpt lat="44.44067" lon="4.18744">
        <ele>243.887</ele>
        <time>2012-06-02T12:42:07Z</time>
      </trkpt>
      <trkpt lat="44.44084" lon="4.18743">
        <ele>245.157</ele>
        <time>2012-06-02T12:42:15Z</time>
      </trkpt>
      <trkpt lat="44.44109" lon="4.1874">
        <ele>245.767</ele>
        <time>2012-06-02T12:42:26Z</time>
      </trkpt>
      <trkpt lat="44.44135" lon="4.18734">
        <ele>245.936</ele>
        <time>2012-06-02T12:42:37Z</time>
      </trkpt>
      <trkpt lat="44.44159" lon="4.18731">
        <ele>246.777</ele>
        <time>2012-06-02T12:42:47Z</time>
      </trkpt>
      <trkpt lat="44.4418" lon="4.18731">
        <ele>248.728</ele>
        <time>2012-06-02T12:42:55Z</time>
      </trkpt>
      <trkpt lat="44.44205" lon="4.18729">
        <ele>248.667</ele>
        <time>2012-06-02T12:43:04Z</time>
      </trkpt>
      <trkpt lat="44.44226" lon="4.18725">
        <ele>248.487</ele>
        <time>2012-06-02T12:43:12Z</time>
      </trkpt>
      <trkpt lat="44.44242" lon="4.18726">
        <ele>249.097</ele>
        <time>2012-06-02T12:43:19Z</time>
      </trkpt>
      <trkpt lat="44.44251" lon="4.18731">
        <ele>249.267</ele>
        <time>2012-06-02T12:43:25Z</time>
      </trkpt>
      <trkpt lat="44.44251" lon="4.18731">
        <ele>249.365</ele>
        <time>2012-06-02T12:43:26Z</time>
      </trkpt>
    </trkseg>
  </trk>
</gpx>